Wetterdaten: Montag, 10.07.2023
Datum Zeit Temp. Aussen Temp. o. S. Temp +5cm Feuchte Auss Luftdruck Regen Sonnenschein Regendauer Solar Windben Empfang
10.07.2023 00:00 21,9 C 21,1 C 17,8 C 96 % 1019,5 hPa 0,0 l/m 0 min 0 min 0 W/m 9,7 km/h (2 Bft) 95,74 %
10.07.2023 00:02 21,9 C 21,1 C 17,8 C 96 % 1019,5 hPa 0,0 l/m 0 min 0 min 0 W/m 12,9 km/h (3 Bft) 97,06 %
10.07.2023 00:04 21,8 C 20,6 C 17,8 C 95 % 1019,5 hPa 0,0 l/m 0 min 0 min 0 W/m 12,9 km/h (3 Bft) 89,80 %
10.07.2023 00:08 21,7 C 20,6 C 17,2 C 95 % 1019,4 hPa 0,0 l/m 0 min 0 min 0 W/m 16,1 km/h (3 Bft) 92,47 %
10.07.2023 00:10 21,6 C 20,6 C 17,2 C 95 % 1019,5 hPa 0,0 l/m 0 min 0 min 0 W/m 16,1 km/h (3 Bft) 92,73 %
10.07.2023 00:12 21,6 C 20,6 C 17,2 C 95 % 1019,5 hPa 0,0 l/m 0 min 0 min 0 W/m 9,7 km/h (2 Bft) 93,62 %
10.07.2023 00:14 21,4 C 20,6 C 17,2 C 95 % 1019,5 hPa 0,0 l/m 0 min 0 min 0 W/m 12,9 km/h (3 Bft) 93,62 %
10.07.2023 00:16 21,4 C 20,6 C 17,2 C 95 % 1019,5 hPa 0,0 l/m 0 min 0 min 0 W/m 16,1 km/h (3 Bft) 93,48 %
10.07.2023 00:18 21,4 C 20,6 C 17,2 C 95 % 1019,6 hPa 0,0 l/m 0 min 0 min 0 W/m 12,9 km/h (3 Bft) 93,62 %
10.07.2023 00:20 21,3 C 20,6 C 17,2 C 95 % 1019,5 hPa 0,0 l/m 0 min 0 min 0 W/m 6,4 km/h (2 Bft) 93,62 %
10.07.2023 00:22 21,3 C 20,6 C 17,2 C 95 % 1019,5 hPa 0,0 l/m 0 min 0 min 0 W/m 12,9 km/h (3 Bft) 91,49 %
10.07.2023 00:24 21,3 C 20,6 C 17,2 C 95 % 1019,5 hPa 0,0 l/m 0 min 0 min 0 W/m 6,4 km/h (2 Bft) 95,74 %
10.07.2023 00:26 21,3 C 20,6 C 17,2 C 95 % 1019,5 hPa 0,0 l/m 0 min 0 min 0 W/m 12,9 km/h (3 Bft) 95,74 %
10.07.2023 00:28 21,3 C 20,6 C 17,2 C 95 % 1019,5 hPa 0,0 l/m 0 min 0 min 0 W/m 3,2 km/h (1 Bft) 93,48 %
10.07.2023 00:30 21,3 C 20,6 C 17,2 C 95 % 1019,4 hPa 0,0 l/m 0 min 0 min 0 W/m 6,4 km/h (2 Bft) 93,75 %
10.07.2023 00:32 21,3 C 20,6 C 17,2 C 95 % 1019,4 hPa 0,0 l/m 0 min 0 min 0 W/m 3,2 km/h (1 Bft) 95,74 %
10.07.2023 00:34 21,3 C 20,6 C 17,2 C 95 % 1019,4 hPa 0,0 l/m 0 min 0 min 0 W/m 0,0 km/h (0 Bft) 97,87 %
10.07.2023 00:36 21,3 C 20,6 C 17,2 C 95 % 1019,4 hPa 0,0 l/m 0 min 0 min 0 W/m 0,0 km/h (0 Bft) 97,87 %
10.07.2023 00:38 21,3 C 20,6 C 17,2 C 95 % 1019,3 hPa 0,0 l/m 0 min 0 min 0 W/m 0,0 km/h (0 Bft) 97,87 %
10.07.2023 00:40 21,3 C 20,0 C 17,2 C 95 % 1019,4 hPa 0,0 l/m 0 min 0 min 0 W/m 6,4 km/h (2 Bft) 100,00 %
10.07.2023 00:42 21,3 C 20,0 C 17,2 C 95 % 1019,5 hPa 0,0 l/m 0 min 0 min 0 W/m 9,7 km/h (2 Bft) 100,00 %
10.07.2023 00:44 21,3 C 20,0 C 17,2 C 95 % 1019,5 hPa 0,0 l/m 0 min 0 min 0 W/m 6,4 km/h (2 Bft) 100,00 %
10.07.2023 00:46 21,3 C 20,0 C 17,2 C 95 % 1019,5 hPa 0,0 l/m 0 min 0 min 0 W/m 3,2 km/h (1 Bft) 97,87 %
10.07.2023 00:48 21,3 C 20,0 C 17,2 C 95 % 1019,5 hPa 0,0 l/m 0 min 0 min 0 W/m 3,2 km/h (1 Bft) 100,00 %
10.07.2023 00:50 21,2 C 20,0 C 17,2 C 95 % 1019,6 hPa 0,0 l/m 0 min 0 min 0 W/m 3,2 km/h (1 Bft) 100,00 %
10.07.2023 00:52 21,2 C 20,0 C 17,2 C 95 % 1019,6 hPa 0,0 l/m 0 min 0 min 0 W/m 0,0 km/h (0 Bft) 100,00 %
10.07.2023 00:54 21,2 C 20,0 C 17,2 C 95 % 1019,6 hPa 0,0 l/m 0 min 0 min 0 W/m 0,0 km/h (0 Bft) 100,00 %
10.07.2023 00:56 21,2 C 20,0 C 16,7 C 95 % 1019,6 hPa 0,0 l/m 0 min 0 min 0 W/m 6,4 km/h (2 Bft) 100,00 %
10.07.2023 00:58 21,2 C 20,0 C 16,7 C 95 % 1019,6 hPa 0,0 l/m 0 min 0 min 0 W/m 9,7 km/h (2 Bft) 100,00 %
10.07.2023 01:00 21,2 C 20,0 C 16,7 C 95 % 1019,6 hPa 0,0 l/m 0 min 0 min 0 W/m 6,4 km/h (2 Bft) 97,87 %
10.07.2023 01:02 21,2 C 20,0 C 16,7 C 95 % 1019,5 hPa 0,0 l/m 0 min 0 min 0 W/m 9,7 km/h (2 Bft) 100,00 %
10.07.2023 01:04 21,1 C 20,0 C 16,7 C 95 % 1019,6 hPa 0,0 l/m 0 min 0 min 0 W/m 9,7 km/h (2 Bft) 100,00 %
10.07.2023 01:06 21,1 C 20,0 C 16,7 C 95 % 1019,6 hPa 0,0 l/m 0 min 0 min 0 W/m 9,7 km/h (2 Bft) 100,00 %
10.07.2023 01:08 21,1 C 20,0 C 16,7 C 95 % 1019,6 hPa 0,0 l/m 0 min 0 min 0 W/m 6,4 km/h (2 Bft) 95,74 %
10.07.2023 01:10 21,1 C 20,0 C 16,7 C 95 % 1019,6 hPa 0,0 l/m 0 min 0 min 0 W/m 6,4 km/h (2 Bft) 100,00 %
10.07.2023 01:12 21,1 C 20,0 C 16,7 C 95 % 1019,6 hPa 0,0 l/m 0 min 0 min 0 W/m 6,4 km/h (2 Bft) 100,00 %
10.07.2023 01:14 21,1 C 20,0 C 16,7 C 95 % 1019,6 hPa 0,0 l/m 0 min 0 min 0 W/m 9,7 km/h (2 Bft) 100,00 %
10.07.2023 01:16 21,0 C 20,0 C 16,7 C 95 % 1019,5 hPa 0,0 l/m 0 min 0 min 0 W/m 3,2 km/h (1 Bft) 100,00 %
10.07.2023 01:18 21,0 C 20,0 C 16,7 C 95 % 1019,6 hPa 0,0 l/m 0 min 0 min 0 W/m 3,2 km/h (1 Bft) 100,00 %
10.07.2023 01:20 21,0 C 20,0 C 16,7 C 95 % 1019,6 hPa 0,0 l/m 0 min 0 min 0 W/m 6,4 km/h (2 Bft) 97,87 %
10.07.2023 01:22 21,0 C 20,0 C 16,7 C 95 % 1019,6 hPa 0,0 l/m 0 min 0 min 0 W/m 0,0 km/h (0 Bft) 100,00 %
10.07.2023 01:24 21,0 C 20,0 C 16,7 C 95 % 1019,6 hPa 0,0 l/m 0 min 0 min 0 W/m 6,4 km/h (2 Bft) 97,87 %
10.07.2023 01:26 20,9 C 20,0 C 16,7 C 95 % 1019,6 hPa 0,0 l/m 0 min 0 min 0 W/m 6,4 km/h (2 Bft) 100,00 %
10.07.2023 01:28 20,9 C 20,0 C 16,7 C 95 % 1019,6 hPa 0,0 l/m 0 min 0 min 0 W/m 6,4 km/h (2 Bft) 100,00 %
10.07.2023 01:30 20,9 C 20,0 C 16,7 C 95 % 1019,6 hPa 0,0 l/m 0 min 0 min 0 W/m 0,0 km/h (0 Bft) 100,00 %
10.07.2023 01:32 20,9 C 20,0 C 16,7 C 95 % 1019,6 hPa 0,0 l/m 0 min 0 min 0 W/m 3,2 km/h (1 Bft) 100,00 %
10.07.2023 01:34 20,9 C 20,0 C 16,7 C 95 % 1019,6 hPa 0,0 l/m 0 min 0 min 0 W/m 0,0 km/h (0 Bft) 100,00 %
10.07.2023 01:36 20,9 C 20,0 C 16,7 C 95 % 1019,6 hPa 0,0 l/m 0 min 0 min 0 W/m 3,2 km/h (1 Bft) 100,00 %
10.07.2023 01:38 20,9 C 20,0 C 16,7 C 95 % 1019,6 hPa 0,0 l/m 0 min 0 min 0 W/m 3,2 km/h (1 Bft) 100,00 %
10.07.2023 01:40 20,9 C 20,0 C 16,7 C 95 % 1019,6 hPa 0,0 l/m 0 min 0 min 0 W/m 3,2 km/h (1 Bft) 100,00 %
10.07.2023 01:42 20,8 C 20,0 C 16,7 C 95 % 1019,6 hPa 0,0 l/m 0 min 0 min 0 W/m 0,0 km/h (0 Bft) 100,00 %
10.07.2023 01:44 20,8 C 19,4 C 16,7 C 95 % 1019,6 hPa 0,0 l/m 0 min 0 min 0 W/m 0,0 km/h (0 Bft) 100,00 %
10.07.2023 01:46 20,8 C 19,4 C 16,7 C 95 % 1019,6 hPa 0,0 l/m 0 min 0 min 0 W/m 0,0 km/h (0 Bft) 97,92 %
10.07.2023 01:48 20,8 C 19,4 C 16,7 C 95 % 1019,6 hPa 0,0 l/m 0 min 0 min 0 W/m 0,0 km/h (0 Bft) 100,00 %
10.07.2023 01:50 20,8 C 19,4 C 16,7 C 95 % 1019,6 hPa 0,0 l/m 0 min 0 min 0 W/m 0,0 km/h (0 Bft) 97,83 %
10.07.2023 01:52 20,8 C 19,4 C 16,7 C 95 % 1019,6 hPa 0,0 l/m 0 min 0 min 0 W/m 0,0 km/h (0 Bft) 100,00 %
10.07.2023 01:54 20,8 C 19,4 C 16,7 C 96 % 1019,7 hPa 0,0 l/m 0 min 0 min 0 W/m 3,2 km/h (1 Bft) 100,00 %
10.07.2023 01:56 20,8 C 19,4 C 16,7 C 96 % 1019,7 hPa 0,0 l/m 0 min 0 min 0 W/m 0,0 km/h (0 Bft) 97,87 %
10.07.2023 01:58 20,8 C 19,4 C 16,7 C 96 % 1019,7 hPa 0,0 l/m 0 min 0 min 0 W/m 0,0 km/h (0 Bft) 100,00 %
10.07.2023 02:00 20,8 C 19,4 C 16,7 C 96 % 1019,8 hPa 0,0 l/m 0 min 0 min 0 W/m 0,0 km/h (0 Bft) 97,87 %
10.07.2023 02:02 20,8 C 19,4 C 16,7 C 96 % 1019,7 hPa 0,0 l/m 0 min 0 min 0 W/m 0,0 km/h (0 Bft) 95,74 %
10.07.2023 02:04 20,8 C 19,4 C 16,7 C 96 % 1019,7 hPa 0,0 l/m 0 min 0 min 0 W/m 0,0 km/h (0 Bft) 97,96 %
10.07.2023 02:07 20,7 C 19,4 C 16,7 C 96 % 1019,8 hPa 0,0 l/m 0 min 0 min 0 W/m 0,0 km/h (0 Bft) 97,18 %
10.07.2023 02:08 20,7 C 19,4 C 16,7 C 96 % 1019,8 hPa 0,0 l/m 0 min 0 min 0 W/m 0,0 km/h (0 Bft) 100,00 %
10.07.2023 02:10 20,7 C 19,4 C 16,7 C 96 % 1019,9 hPa 0,0 l/m 0 min 0 min 0 W/m 0,0 km/h (0 Bft) 97,87 %
10.07.2023 02:12 20,7 C 19,4 C 16,7 C 95 % 1019,9 hPa 0,0 l/m 0 min 0 min 0 W/m 0,0 km/h (0 Bft) 97,83 %
10.07.2023 02:14 20,7 C 19,4 C 16,7 C 96 % 1019,9 hPa 0,0 l/m 0 min 0 min 0 W/m 0,0 km/h (0 Bft) 97,87 %
10.07.2023 02:16 20,7 C 19,4 C 16,7 C 96 % 1019,9 hPa 0,0 l/m 0 min 0 min 0 W/m 6,4 km/h (2 Bft) 95,74 %
10.07.2023 02:18 20,7 C 19,4 C 16,7 C 96 % 1019,9 hPa 0,0 l/m 0 min 0 min 0 W/m 12,9 km/h (3 Bft) 95,74 %
10.07.2023 02:20 20,6 C 19,4 C 16,7 C 96 % 1019,9 hPa 0,0 l/m 0 min 0 min 0 W/m 12,9 km/h (3 Bft) 93,62 %
10.07.2023 02:22 20,6 C 19,4 C 16,7 C 96 % 1020,0 hPa 0,0 l/m 0 min 0 min 0 W/m 9,7 km/h (2 Bft) 91,49 %
10.07.2023 02:24 20,6 C 19,4 C 16,7 C 96 % 1020,1 hPa 0,0 l/m 0 min 0 min 0 W/m 6,4 km/h (2 Bft) 93,48 %
10.07.2023 02:26 20,6 C 19,4 C 16,7 C 96 % 1020,0 hPa 0,0 l/m 0 min 0 min 0 W/m 9,7 km/h (2 Bft) 95,74 %
10.07.2023 02:28 20,6 C 19,4 C 16,7 C 96 % 1020,0 hPa 0,0 l/m 0 min 0 min 0 W/m 9,7 km/h (2 Bft) 95,74 %
10.07.2023 02:30 20,6 C 19,4 C 16,7 C 96 % 1020,0 hPa 0,0 l/m 0 min 0 min 0 W/m 6,4 km/h (2 Bft) 95,74 %
10.07.2023 02:32 20,5 C 19,4 C 16,7 C 96 % 1019,9 hPa 0,0 l/m 0 min 0 min 0 W/m 9,7 km/h (2 Bft) 95,74 %
10.07.2023 02:34 20,5 C 19,4 C 16,7 C 96 % 1019,9 hPa 0,0 l/m 0 min 0 min 0 W/m 12,9 km/h (3 Bft) 97,87 %
10.07.2023 02:36 20,5 C 19,4 C 16,7 C 96 % 1020,0 hPa 0,0 l/m 0 min 0 min 0 W/m 16,1 km/h (3 Bft) 97,83 %
10.07.2023 02:38 20,4 C 19,4 C 16,7 C 96 % 1019,9 hPa 0,0 l/m 0 min 0 min 0 W/m 3,2 km/h (1 Bft) 95,74 %
10.07.2023 02:40 20,4 C 19,4 C 16,7 C 96 % 1019,9 hPa 0,0 l/m 0 min 0 min 0 W/m 9,7 km/h (2 Bft) 93,62 %
10.07.2023 02:42 20,4 C 19,4 C 16,7 C 96 % 1019,9 hPa 0,0 l/m 0 min 0 min 0 W/m 12,9 km/h (3 Bft) 95,74 %
10.07.2023 02:44 20,4 C 19,4 C 16,7 C 96 % 1019,8 hPa 0,0 l/m 0 min 0 min 0 W/m 6,4 km/h (2 Bft) 95,74 %
10.07.2023 02:46 20,3 C 19,4 C 16,1 C 96 % 1019,8 hPa 0,0 l/m 0 min 0 min 0 W/m 12,9 km/h (3 Bft) 95,74 %
10.07.2023 02:48 20,3 C 19,4 C 16,1 C 96 % 1019,9 hPa 0,0 l/m 0 min 0 min 0 W/m 19,3 km/h (3 Bft) 95,74 %
10.07.2023 02:50 20,3 C 19,4 C 16,1 C 96 % 1019,9 hPa 0,0 l/m 0 min 0 min 0 W/m 9,7 km/h (2 Bft) 95,65 %
10.07.2023 02:52 20,2 C 19,4 C 16,1 C 96 % 1019,9 hPa 0,0 l/m 0 min 0 min 0 W/m 12,9 km/h (3 Bft) 95,74 %
10.07.2023 02:54 20,2 C 19,4 C 16,1 C 95 % 1019,9 hPa 0,0 l/m 0 min 0 min 0 W/m 6,4 km/h (2 Bft) 95,74 %
10.07.2023 02:56 20,2 C 19,4 C 16,1 C 96 % 1019,9 hPa 0,0 l/m 0 min 0 min 0 W/m 9,7 km/h (2 Bft) 93,62 %
10.07.2023 02:58 20,2 C 19,4 C 16,1 C 96 % 1019,9 hPa 0,0 l/m 0 min 0 min 0 W/m 6,4 km/h (2 Bft) 93,62 %
10.07.2023 03:00 20,2 C 18,9 C 16,1 C 96 % 1019,8 hPa 0,0 l/m 0 min 0 min 0 W/m 3,2 km/h (1 Bft) 93,62 %
10.07.2023 03:02 20,1 C 18,9 C 16,1 C 96 % 1019,8 hPa 0,0 l/m 0 min 0 min 0 W/m 6,4 km/h (2 Bft) 95,65 %
10.07.2023 03:04 20,1 C 18,9 C 16,1 C 96 % 1019,7 hPa 0,0 l/m 0 min 0 min 0 W/m 9,7 km/h (2 Bft) 95,92 %
10.07.2023 03:06 20,1 C 18,9 C 16,1 C 96 % 1019,7 hPa 0,0 l/m 0 min 0 min 0 W/m 12,9 km/h (3 Bft) 94,83 %
10.07.2023 03:08 20,1 C 18,9 C 16,1 C 96 % 1019,7 hPa 0,0 l/m 0 min 0 min 0 W/m 6,4 km/h (2 Bft) 100,00 %
10.07.2023 03:10 20,1 C 18,9 C 16,1 C 96 % 1019,7 hPa 0,0 l/m 0 min 0 min 0 W/m 12,9 km/h (3 Bft) 93,48 %
10.07.2023 03:12 20,0 C 18,9 C 16,1 C 96 % 1019,7 hPa 0,0 l/m 0 min 0 min 0 W/m 3,2 km/h (1 Bft) 97,87 %
10.07.2023 03:14 20,0 C 18,9 C 16,1 C 96 % 1019,7 hPa 0,0 l/m 0 min 0 min 0 W/m 9,7 km/h (2 Bft) 97,87 %
10.07.2023 03:16 20,0 C 18,9 C 16,1 C 96 % 1019,7 hPa 0,0 l/m 0 min 0 min 0 W/m 6,4 km/h (2 Bft) 95,74 %
10.07.2023 03:18 19,9 C 18,9 C 16,1 C 96 % 1019,8 hPa 0,0 l/m 0 min 0 min 0 W/m 9,7 km/h (2 Bft) 95,74 %
10.07.2023 03:20 19,9 C 18,9 C 15,6 C 95 % 1019,8 hPa 0,0 l/m 0 min 0 min 0 W/m 6,4 km/h (2 Bft) 95,74 %
10.07.2023 03:22 19,9 C 18,9 C 16,1 C 95 % 1019,9 hPa 0,0 l/m 0 min 0 min 0 W/m 3,2 km/h (1 Bft) 95,74 %
10.07.2023 03:24 19,9 C 18,9 C 16,1 C 95 % 1019,8 hPa 0,0 l/m 0 min 0 min 0 W/m 3,2 km/h (1 Bft) 97,87 %
10.07.2023 03:26 19,9 C 18,9 C 15,6 C 95 % 1019,9 hPa 0,0 l/m 0 min 0 min 0 W/m 6,4 km/h (2 Bft) 97,87 %
10.07.2023 03:28 19,8 C 18,9 C 15,6 C 95 % 1019,9 hPa 0,0 l/m 0 min 0 min 0 W/m 3,2 km/h (1 Bft) 97,83 %
10.07.2023 03:30 19,8 C 18,9 C 15,6 C 95 % 1019,9 hPa 0,0 l/m 0 min 0 min 0 W/m 3,2 km/h (1 Bft) 97,87 %
10.07.2023 03:32 19,8 C 18,9 C 15,6 C 95 % 1019,8 hPa 0,0 l/m 0 min 0 min 0 W/m 0,0 km/h (0 Bft) 100,00 %
10.07.2023 03:34 19,8 C 18,9 C 15,6 C 95 % 1019,8 hPa 0,0 l/m 0 min 0 min 0 W/m 0,0 km/h (0 Bft) 100,00 %
10.07.2023 03:36 19,8 C 18,9 C 15,6 C 95 % 1019,8 hPa 0,0 l/m 0 min 0 min 0 W/m 0,0 km/h (0 Bft) 97,87 %
10.07.2023 03:38 19,8 C 18,9 C 15,6 C 95 % 1019,7 hPa 0,0 l/m 0 min 0 min 0 W/m 0,0 km/h (0 Bft) 100,00 %
10.07.2023 03:40 19,8 C 18,9 C 15,6 C 95 % 1019,7 hPa 0,0 l/m 0 min 0 min 0 W/m 0,0 km/h (0 Bft) 97,87 %
10.07.2023 03:42 19,8 C 18,3 C 15,6 C 95 % 1019,7 hPa 0,0 l/m 0 min 0 min 0 W/m 3,2 km/h (1 Bft) 100,00 %
10.07.2023 03:44 19,7 C 18,3 C 15,6 C 95 % 1019,8 hPa 0,0 l/m 0 min 0 min 0 W/m 3,2 km/h (1 Bft) 100,00 %
10.07.2023 03:46 19,7 C 18,3 C 15,6 C 95 % 1019,8 hPa 0,0 l/m 0 min 0 min 0 W/m 0,0 km/h (0 Bft) 100,00 %
10.07.2023 03:48 19,7 C 18,3 C 15,6 C 95 % 1019,7 hPa 0,0 l/m 0 min 0 min 0 W/m 0,0 km/h (0 Bft) 100,00 %
10.07.2023 03:50 19,7 C 18,3 C 15,6 C 95 % 1019,7 hPa 0,0 l/m 0 min 0 min 0 W/m 0,0 km/h (0 Bft) 100,00 %
10.07.2023 03:52 19,7 C 18,3 C 15,6 C 96 % 1019,6 hPa 0,0 l/m 0 min 0 min 0 W/m 0,0 km/h (0 Bft) 97,87 %
10.07.2023 03:54 19,7 C 18,3 C 15,6 C 96 % 1019,5 hPa 0,0 l/m 0 min 0 min 0 W/m 0,0 km/h (0 Bft) 97,87 %
10.07.2023 03:56 19,7 C 18,3 C 15,6 C 96 % 1019,7 hPa 0,0 l/m 0 min 0 min 0 W/m 3,2 km/h (1 Bft) 97,83 %
10.07.2023 03:58 19,7 C 18,9 C 15,6 C 96 % 1019,8 hPa 0,0 l/m 0 min 0 min 0 W/m 3,2 km/h (1 Bft) 97,87 %
10.07.2023 04:00 19,7 C 18,9 C 15,6 C 96 % 1019,9 hPa 0,0 l/m 0 min 0 min 0 W/m 0,0 km/h (0 Bft) 97,87 %
10.07.2023 04:05 19,7 C 18,9 C 15,6 C 96 % 1020,0 hPa 0,0 l/m 0 min 0 min 0 W/m 3,2 km/h (1 Bft) 97,96 %
10.07.2023 04:06 19,7 C 18,9 C 15,6 C 96 % 1020,0 hPa 0,0 l/m 0 min 0 min 0 W/m 0,0 km/h (0 Bft) 100,00 %
10.07.2023 04:08 19,7 C 18,9 C 15,6 C 96 % 1020,1 hPa 0,0 l/m 0 min 0 min 0 W/m 3,2 km/h (1 Bft) 97,92 %
10.07.2023 04:10 19,7 C 18,9 C 15,6 C 96 % 1020,1 hPa 0,0 l/m 0 min 0 min 0 W/m 0,0 km/h (0 Bft) 97,87 %
10.07.2023 04:12 19,7 C 18,9 C 15,6 C 96 % 1020,1 hPa 0,0 l/m 0 min 0 min 0 W/m 0,0 km/h (0 Bft) 97,67 %
10.07.2023 04:14 19,7 C 18,9 C 16,1 C 96 % 1020,2 hPa 0,0 l/m 0 min 0 min 0 W/m 0,0 km/h (0 Bft) 97,87 %
10.07.2023 04:16 19,7 C 18,9 C 16,1 C 96 % 1020,1 hPa 0,0 l/m 0 min 0 min 0 W/m 0,0 km/h (0 Bft) 97,83 %
10.07.2023 04:18 19,7 C 18,9 C 16,1 C 96 % 1020,1 hPa 0,0 l/m 0 min 0 min 0 W/m 0,0 km/h (0 Bft) 97,92 %
10.07.2023 04:20 19,7 C 18,9 C 16,1 C 96 % 1020,1 hPa 0,0 l/m 0 min 0 min 0 W/m 0,0 km/h (0 Bft) 96,00 %
10.07.2023 04:22 19,7 C 18,9 C 16,1 C 96 % 1020,1 hPa 0,0 l/m 0 min 0 min 0 W/m 0,0 km/h (0 Bft) 97,87 %
10.07.2023 04:24 19,8 C 18,9 C 16,1 C 96 % 1020,1 hPa 0,0 l/m 0 min 0 min 0 W/m 0,0 km/h (0 Bft) 98,00 %
10.07.2023 04:26 19,8 C 18,9 C 16,1 C 96 % 1020,2 hPa 0,0 l/m 0 min 0 min 0 W/m 3,2 km/h (1 Bft) 100,00 %
10.07.2023 04:28 19,8 C 18,9 C 16,1 C 96 % 1020,2 hPa 0,0 l/m 0 min 0 min 0 W/m 3,2 km/h (1 Bft) 97,87 %
10.07.2023 04:30 19,8 C 18,9 C 16,1 C 96 % 1020,3 hPa 0,0 l/m 0 min 0 min 0 W/m 6,4 km/h (2 Bft) 100,00 %
10.07.2023 04:32 19,8 C 18,9 C 16,1 C 96 % 1020,3 hPa 0,0 l/m 0 min 0 min 0 W/m 6,4 km/h (2 Bft) 100,00 %
10.07.2023 04:34 19,8 C 18,9 C 16,1 C 96 % 1020,4 hPa 0,0 l/m 0 min 0 min 0 W/m 6,4 km/h (2 Bft) 100,00 %
10.07.2023 04:36 19,8 C 18,9 C 16,1 C 96 % 1020,4 hPa 0,0 l/m 0 min 0 min 0 W/m 6,4 km/h (2 Bft) 97,87 %
10.07.2023 04:38 19,8 C 18,9 C 16,1 C 96 % 1020,4 hPa 0,0 l/m 0 min 0 min 0 W/m 3,2 km/h (1 Bft) 100,00 %
10.07.2023 04:40 19,8 C 18,9 C 16,1 C 96 % 1020,5 hPa 0,0 l/m 0 min 0 min 0 W/m 3,2 km/h (1 Bft) 100,00 %
10.07.2023 04:42 19,8 C 18,9 C 16,1 C 96 % 1020,5 hPa 0,0 l/m 0 min 0 min 0 W/m 6,4 km/h (2 Bft) 100,00 %
10.07.2023 04:44 19,8 C 18,9 C 16,1 C 96 % 1020,6 hPa 0,0 l/m 0 min 0 min 0 W/m 12,9 km/h (3 Bft) 100,00 %
10.07.2023 04:46 19,8 C 18,9 C 16,1 C 96 % 1020,6 hPa 0,0 l/m 0 min 0 min 0 W/m 12,9 km/h (3 Bft) 100,00 %
10.07.2023 04:48 19,8 C 18,9 C 16,1 C 96 % 1020,6 hPa 0,0 l/m 0 min 0 min 0 W/m 6,4 km/h (2 Bft) 100,00 %
10.07.2023 04:50 19,8 C 18,9 C 16,1 C 96 % 1020,6 hPa 0,0 l/m 0 min 0 min 0 W/m 12,9 km/h (3 Bft) 100,00 %
10.07.2023 04:52 19,8 C 18,9 C 16,1 C 96 % 1020,5 hPa 0,0 l/m 0 min 2 min 0 W/m 6,4 km/h (2 Bft) 100,00 %
10.07.2023 04:54 19,8 C 18,9 C 15,6 C 96 % 1020,5 hPa 0,4 l/m 0 min 2 min 0 W/m 9,7 km/h (2 Bft) 100,00 %
10.07.2023 04:56 19,8 C 18,9 C 15,0 C 96 % 1020,5 hPa 0,2 l/m 0 min 2 min 0 W/m 12,9 km/h (3 Bft) 100,00 %
10.07.2023 04:58 19,8 C 18,9 C 15,0 C 96 % 1020,4 hPa 0,0 l/m 0 min 2 min 0 W/m 3,2 km/h (1 Bft) 100,00 %
10.07.2023 05:00 19,8 C 18,9 C 15,0 C 96 % 1020,5 hPa 0,2 l/m 0 min 2 min 0 W/m 3,2 km/h (1 Bft) 100,00 %
10.07.2023 05:02 19,8 C 18,9 C 15,0 C 96 % 1020,5 hPa 0,0 l/m 0 min 2 min 0 W/m 3,2 km/h (1 Bft) 100,00 %
10.07.2023 05:04 19,8 C 18,9 C 15,0 C 96 % 1020,5 hPa 0,0 l/m 0 min 2 min 0 W/m 3,2 km/h (1 Bft) 100,00 %
10.07.2023 05:06 19,8 C 18,9 C 15,0 C 96 % 1020,5 hPa 0,0 l/m 0 min 2 min 0 W/m 6,4 km/h (2 Bft) 100,00 %
10.07.2023 05:08 19,8 C 18,9 C 15,0 C 96 % 1020,6 hPa 0,0 l/m 0 min 2 min 0 W/m 6,4 km/h (2 Bft) 100,00 %
10.07.2023 05:10 19,7 C 18,3 C 15,0 C 96 % 1020,6 hPa 0,2 l/m 0 min 2 min 0 W/m 3,2 km/h (1 Bft) 100,00 %
10.07.2023 05:12 19,7 C 18,3 C 15,0 C 96 % 1020,6 hPa 0,0 l/m 0 min 0 min 0 W/m 3,2 km/h (1 Bft) 95,74 %
10.07.2023 05:14 19,7 C 18,3 C 15,0 C 96 % 1020,6 hPa 0,0 l/m 0 min 0 min 0 W/m 3,2 km/h (1 Bft) 95,74 %
10.07.2023 05:16 19,7 C 18,3 C 15,0 C 96 % 1020,6 hPa 0,0 l/m 0 min 0 min 0 W/m 3,2 km/h (1 Bft) 97,87 %
10.07.2023 05:18 19,6 C 18,3 C 15,0 C 96 % 1020,5 hPa 0,0 l/m 0 min 0 min 0 W/m 6,4 km/h (2 Bft) 95,74 %
10.07.2023 05:20 19,6 C 18,3 C 15,0 C 96 % 1020,5 hPa 0,0 l/m 0 min 0 min 0 W/m 3,2 km/h (1 Bft) 97,83 %
10.07.2023 05:22 19,6 C 18,3 C 15,0 C 96 % 1020,4 hPa 0,0 l/m 0 min 0 min 0 W/m 3,2 km/h (1 Bft) 97,87 %
10.07.2023 05:24 19,6 C 18,3 C 15,0 C 96 % 1020,4 hPa 0,0 l/m 0 min 0 min 0 W/m 6,4 km/h (2 Bft) 97,87 %
10.07.2023 05:26 19,6 C 18,3 C 15,0 C 96 % 1020,5 hPa 0,0 l/m 0 min 0 min 0 W/m 3,2 km/h (1 Bft) 95,74 %
10.07.2023 05:28 19,6 C 18,3 C 15,0 C 96 % 1020,6 hPa 0,0 l/m 0 min 0 min 0 W/m 3,2 km/h (1 Bft) 95,74 %
10.07.2023 05:30 19,6 C 18,3 C 15,0 C 96 % 1020,5 hPa 0,0 l/m 0 min 0 min 0 W/m 3,2 km/h (1 Bft) 97,87 %
10.07.2023 05:32 19,6 C 18,3 C 15,0 C 97 % 1020,5 hPa 0,0 l/m 0 min 0 min 0 W/m 3,2 km/h (1 Bft) 97,87 %
10.07.2023 05:34 19,5 C 18,3 C 15,0 C 97 % 1020,6 hPa 0,0 l/m 0 min 0 min 0 W/m 3,2 km/h (1 Bft) 95,65 %
10.07.2023 05:36 19,5 C 18,3 C 15,0 C 97 % 1020,6 hPa 0,0 l/m 0 min 0 min 0 W/m 6,4 km/h (2 Bft) 95,74 %
10.07.2023 05:38 19,5 C 18,3 C 15,0 C 97 % 1020,6 hPa 0,0 l/m 0 min 0 min 0 W/m 6,4 km/h (2 Bft) 95,74 %
10.07.2023 05:40 19,4 C 18,3 C 15,0 C 97 % 1020,6 hPa 0,0 l/m 0 min 0 min 0 W/m 6,4 km/h (2 Bft) 93,62 %
10.07.2023 05:42 19,4 C 18,3 C 15,0 C 97 % 1020,6 hPa 0,0 l/m 0 min 0 min 0 W/m 6,4 km/h (2 Bft) 95,74 %
10.07.2023 05:44 19,4 C 18,3 C 14,4 C 97 % 1020,6 hPa 0,0 l/m 0 min 0 min 0 W/m 6,4 km/h (2 Bft) 95,74 %
10.07.2023 05:46 19,3 C 18,3 C 14,4 C 97 % 1020,6 hPa 0,0 l/m 0 min 0 min 0 W/m 9,7 km/h (2 Bft) 91,30 %
10.07.2023 05:48 19,2 C 18,3 C 14,4 C 97 % 1020,6 hPa 0,0 l/m 0 min 0 min 0 W/m 6,4 km/h (2 Bft) 93,62 %
10.07.2023 05:50 19,2 C 18,3 C 14,4 C 96 % 1020,7 hPa 0,0 l/m 0 min 0 min 0 W/m 6,4 km/h (2 Bft) 93,62 %
10.07.2023 05:52 19,1 C 18,3 C 14,4 C 96 % 1020,6 hPa 0,0 l/m 0 min 0 min 0 W/m 6,4 km/h (2 Bft) 91,49 %
10.07.2023 05:54 19,1 C 18,3 C 14,4 C 96 % 1020,6 hPa 0,0 l/m 0 min 0 min 0 W/m 3,2 km/h (1 Bft) 93,62 %
10.07.2023 05:56 19,0 C 18,3 C 14,4 C 97 % 1020,6 hPa 0,0 l/m 0 min 0 min 0 W/m 12,9 km/h (3 Bft) 89,36 %
10.07.2023 05:58 19,0 C 18,3 C 14,4 C 97 % 1020,6 hPa 0,0 l/m 0 min 0 min 4 W/m 6,4 km/h (2 Bft) 93,62 %
10.07.2023 06:00 18,9 C 17,8 C 14,4 C 97 % 1020,7 hPa 0,0 l/m 0 min 0 min 5 W/m 12,9 km/h (3 Bft) 93,48 %
10.07.2023 06:02 18,9 C 18,3 C 14,4 C 97 % 1020,7 hPa 0,0 l/m 0 min 0 min 5 W/m 6,4 km/h (2 Bft) 95,74 %
10.07.2023 06:04 18,9 C 18,3 C 14,4 C 97 % 1020,7 hPa 0,0 l/m 0 min 0 min 5 W/m 6,4 km/h (2 Bft) 93,02 %
10.07.2023 06:08 18,9 C 18,3 C 14,4 C 97 % 1020,8 hPa 0,0 l/m 0 min 0 min 5 W/m 6,4 km/h (2 Bft) 94,44 %
10.07.2023 06:10 18,9 C 18,3 C 14,4 C 97 % 1020,8 hPa 0,0 l/m 0 min 0 min 5 W/m 9,7 km/h (2 Bft) 95,74 %
10.07.2023 06:12 18,8 C 17,8 C 14,4 C 97 % 1020,8 hPa 0,0 l/m 0 min 0 min 5 W/m 3,2 km/h (1 Bft) 95,74 %
10.07.2023 06:14 18,9 C 18,3 C 14,4 C 97 % 1020,9 hPa 0,0 l/m 0 min 0 min 6 W/m 6,4 km/h (2 Bft) 95,65 %
10.07.2023 06:16 18,8 C 18,3 C 14,4 C 97 % 1020,8 hPa 0,0 l/m 0 min 0 min 7 W/m 3,2 km/h (1 Bft) 97,87 %
10.07.2023 06:18 18,8 C 18,3 C 14,4 C 97 % 1020,8 hPa 0,0 l/m 0 min 0 min 7 W/m 6,4 km/h (2 Bft) 95,74 %
10.07.2023 06:20 18,8 C 18,3 C 14,4 C 97 % 1020,8 hPa 0,0 l/m 0 min 0 min 8 W/m 6,4 km/h (2 Bft) 97,87 %
10.07.2023 06:22 18,8 C 18,3 C 14,4 C 97 % 1020,9 hPa 0,0 l/m 0 min 0 min 9 W/m 6,4 km/h (2 Bft) 97,87 %
10.07.2023 06:24 18,8 C 18,3 C 14,4 C 97 % 1020,9 hPa 0,0 l/m 0 min 0 min 10 W/m 9,7 km/h (2 Bft) 100,00 %
10.07.2023 06:26 18,8 C 18,3 C 14,4 C 97 % 1020,9 hPa 0,0 l/m 0 min 0 min 10 W/m 6,4 km/h (2 Bft) 100,00 %
10.07.2023 06:28 18,8 C 18,3 C 14,4 C 97 % 1020,9 hPa 0,0 l/m 0 min 0 min 13 W/m 3,2 km/h (1 Bft) 97,83 %
10.07.2023 06:30 18,8 C 18,3 C 14,4 C 97 % 1021,0 hPa 0,0 l/m 0 min 0 min 15 W/m 3,2 km/h (1 Bft) 100,00 %
10.07.2023 06:32 18,8 C 18,3 C 14,4 C 97 % 1020,9 hPa 0,0 l/m 0 min 0 min 16 W/m 3,2 km/h (1 Bft) 100,00 %
10.07.2023 06:34 18,8 C 18,3 C 14,4 C 97 % 1020,9 hPa 0,0 l/m 0 min 0 min 18 W/m 3,2 km/h (1 Bft) 100,00 %
10.07.2023 06:36 18,9 C 18,3 C 14,4 C 97 % 1020,9 hPa 0,0 l/m 0 min 0 min 23 W/m 3,2 km/h (1 Bft) 100,00 %
10.07.2023 06:38 18,9 C 18,3 C 14,4 C 97 % 1021,0 hPa 0,0 l/m 0 min 0 min 25 W/m 3,2 km/h (1 Bft) 100,00 %
10.07.2023 06:40 18,9 C 18,3 C 14,4 C 97 % 1021,0 hPa 0,0 l/m 0 min 0 min 23 W/m 3,2 km/h (1 Bft) 97,87 %
10.07.2023 06:42 18,9 C 18,3 C 14,4 C 97 % 1020,9 hPa 0,0 l/m 0 min 0 min 24 W/m 3,2 km/h (1 Bft) 100,00 %
10.07.2023 06:44 18,9 C 18,3 C 14,4 C 97 % 1020,9 hPa 0,0 l/m 0 min 0 min 26 W/m 3,2 km/h (1 Bft) 100,00 %
10.07.2023 06:46 18,9 C 18,3 C 14,4 C 97 % 1020,9 hPa 0,0 l/m 0 min 0 min 29 W/m 3,2 km/h (1 Bft) 100,00 %
10.07.2023 06:48 18,9 C 18,3 C 14,4 C 97 % 1021,0 hPa 0,0 l/m 0 min 0 min 30 W/m 3,2 km/h (1 Bft) 95,74 %
10.07.2023 06:50 18,9 C 18,3 C 14,4 C 97 % 1020,9 hPa 0,0 l/m 0 min 0 min 26 W/m 3,2 km/h (1 Bft) 100,00 %
10.07.2023 06:52 18,9 C 18,3 C 14,4 C 97 % 1020,9 hPa 0,0 l/m 0 min 0 min 26 W/m 3,2 km/h (1 Bft) 100,00 %
10.07.2023 06:54 18,9 C 18,3 C 14,4 C 97 % 1021,0 hPa 0,0 l/m 0 min 0 min 27 W/m 3,2 km/h (1 Bft) 100,00 %
10.07.2023 06:56 18,9 C 18,3 C 14,4 C 97 % 1021,1 hPa 0,0 l/m 0 min 0 min 28 W/m 3,2 km/h (1 Bft) 97,87 %
10.07.2023 06:58 18,9 C 18,3 C 14,4 C 97 % 1021,1 hPa 0,0 l/m 0 min 0 min 27 W/m 3,2 km/h (1 Bft) 100,00 %
10.07.2023 07:00 18,9 C 18,3 C 14,4 C 97 % 1021,1 hPa 0,0 l/m 0 min 0 min 31 W/m 3,2 km/h (1 Bft) 100,00 %
10.07.2023 07:02 18,9 C 18,3 C 14,4 C 97 % 1021,1 hPa 0,0 l/m 0 min 0 min 30 W/m 3,2 km/h (1 Bft) 100,00 %
10.07.2023 07:04 18,9 C 18,3 C 14,4 C 97 % 1021,1 hPa 0,0 l/m 0 min 0 min 34 W/m 3,2 km/h (1 Bft) 97,87 %
10.07.2023 07:06 18,9 C 18,3 C 14,4 C 97 % 1021,2 hPa 0,0 l/m 0 min 0 min 44 W/m 3,2 km/h (1 Bft) 100,00 %
10.07.2023 07:08 18,9 C 18,3 C 14,4 C 97 % 1021,2 hPa 0,0 l/m 0 min 0 min 48 W/m 6,4 km/h (2 Bft) 100,00 %
10.07.2023 07:10 18,9 C 18,3 C 14,4 C 97 % 1021,2 hPa 0,0 l/m 0 min 0 min 53 W/m 6,4 km/h (2 Bft) 100,00 %
10.07.2023 07:12 18,8 C 18,3 C 14,4 C 97 % 1021,3 hPa 0,0 l/m 0 min 0 min 59 W/m 6,4 km/h (2 Bft) 100,00 %
10.07.2023 07:14 18,8 C 18,3 C 14,4 C 97 % 1021,3 hPa 0,0 l/m 0 min 0 min 62 W/m 6,4 km/h (2 Bft) 97,87 %
10.07.2023 07:16 18,8 C 18,3 C 14,4 C 96 % 1021,2 hPa 0,0 l/m 0 min 0 min 61 W/m 3,2 km/h (1 Bft) 97,87 %
10.07.2023 07:18 18,8 C 18,3 C 14,4 C 96 % 1021,2 hPa 0,0 l/m 0 min 0 min 57 W/m 0,0 km/h (0 Bft) 100,00 %
10.07.2023 07:20 18,8 C 18,3 C 14,4 C 96 % 1021,3 hPa 0,0 l/m 0 min 0 min 55 W/m 0,0 km/h (0 Bft) 100,00 %
10.07.2023 07:22 18,8 C 18,3 C 14,4 C 97 % 1021,3 hPa 0,0 l/m 0 min 0 min 51 W/m 0,0 km/h (0 Bft) 100,00 %
10.07.2023 07:24 18,9 C 18,3 C 14,4 C 97 % 1021,3 hPa 0,0 l/m 0 min 0 min 52 W/m 0,0 km/h (0 Bft) 97,87 %
10.07.2023 07:26 18,9 C 18,3 C 14,4 C 97 % 1021,3 hPa 0,0 l/m 0 min 0 min 51 W/m 0,0 km/h (0 Bft) 100,00 %
10.07.2023 07:28 18,9 C 18,3 C 14,4 C 97 % 1021,4 hPa 0,0 l/m 0 min 0 min 47 W/m 0,0 km/h (0 Bft) 100,00 %
10.07.2023 07:30 18,9 C 18,3 C 14,4 C 97 % 1021,4 hPa 0,0 l/m 0 min 0 min 49 W/m 0,0 km/h (0 Bft) 95,74 %
10.07.2023 07:32 18,9 C 18,3 C 14,4 C 96 % 1021,5 hPa 0,0 l/m 0 min 0 min 46 W/m 0,0 km/h (0 Bft) 97,83 %
10.07.2023 07:34 18,9 C 18,3 C 14,4 C 96 % 1021,4 hPa 0,0 l/m 0 min 0 min 47 W/m 0,0 km/h (0 Bft) 97,87 %
10.07.2023 07:36 18,9 C 18,9 C 14,4 C 96 % 1021,4 hPa 0,0 l/m 0 min 0 min 50 W/m 0,0 km/h (0 Bft) 95,74 %
10.07.2023 07:38 18,9 C 18,9 C 14,4 C 96 % 1021,5 hPa 0,0 l/m 0 min 0 min 51 W/m 0,0 km/h (0 Bft) 97,87 %
10.07.2023 07:40 18,9 C 18,9 C 14,4 C 96 % 1021,4 hPa 0,0 l/m 0 min 0 min 46 W/m 0,0 km/h (0 Bft) 97,87 %
10.07.2023 07:42 18,9 C 18,9 C 14,4 C 96 % 1021,4 hPa 0,0 l/m 0 min 0 min 37 W/m 0,0 km/h (0 Bft) 95,74 %
10.07.2023 07:44 18,9 C 18,9 C 14,4 C 96 % 1021,4 hPa 0,0 l/m 0 min 0 min 43 W/m 0,0 km/h (0 Bft) 93,62 %
10.07.2023 07:46 18,9 C 18,9 C 14,4 C 96 % 1021,4 hPa 0,0 l/m 0 min 0 min 62 W/m 0,0 km/h (0 Bft) 97,83 %
10.07.2023 07:48 18,9 C 18,9 C 15,0 C 96 % 1021,5 hPa 0,0 l/m 0 min 0 min 68 W/m 0,0 km/h (0 Bft) 95,74 %
10.07.2023 07:50 18,9 C 18,9 C 15,0 C 96 % 1021,5 hPa 0,0 l/m 0 min 0 min 70 W/m 0,0 km/h (0 Bft) 95,74 %
10.07.2023 07:52 19,0 C 18,9 C 15,0 C 96 % 1021,5 hPa 0,0 l/m 0 min 0 min 76 W/m 0,0 km/h (0 Bft) 97,87 %
10.07.2023 07:54 19,0 C 18,9 C 15,0 C 96 % 1021,6 hPa 0,0 l/m 0 min 0 min 80 W/m 0,0 km/h (0 Bft) 95,74 %
10.07.2023 07:56 19,0 C 18,9 C 15,0 C 96 % 1021,6 hPa 0,0 l/m 0 min 0 min 88 W/m 0,0 km/h (0 Bft) 97,87 %
10.07.2023 07:58 19,1 C 18,9 C 15,0 C 96 % 1021,6 hPa 0,0 l/m 0 min 0 min 90 W/m 0,0 km/h (0 Bft) 97,83 %
10.07.2023 08:00 19,1 C 18,9 C 15,0 C 96 % 1021,6 hPa 0,0 l/m 0 min 0 min 89 W/m 0,0 km/h (0 Bft) 97,87 %
10.07.2023 08:02 19,1 C 18,9 C 15,0 C 96 % 1021,7 hPa 0,0 l/m 0 min 0 min 72 W/m 0,0 km/h (0 Bft) 93,62 %
10.07.2023 08:04 19,1 C 18,9 C 15,0 C 96 % 1021,6 hPa 0,0 l/m 0 min 0 min 62 W/m 3,2 km/h (1 Bft) 100,00 %
10.07.2023 08:06 19,1 C 18,9 C 15,0 C 96 % 1021,6 hPa 0,0 l/m 0 min 0 min 69 W/m 6,4 km/h (2 Bft) 93,75 %
10.07.2023 08:08 19,1 C 18,9 C 15,0 C 96 % 1021,6 hPa 0,0 l/m 0 min 0 min 90 W/m 6,4 km/h (2 Bft) 95,74 %
10.07.2023 08:10 19,1 C 18,9 C 15,0 C 95 % 1021,6 hPa 0,0 l/m 0 min 0 min 95 W/m 6,4 km/h (2 Bft) 97,87 %
10.07.2023 08:12 19,1 C 18,9 C 15,0 C 95 % 1021,6 hPa 0,0 l/m 0 min 0 min 82 W/m 6,4 km/h (2 Bft) 93,48 %
10.07.2023 08:14 19,0 C 18,9 C 14,4 C 95 % 1021,7 hPa 0,0 l/m 0 min 0 min 65 W/m 9,7 km/h (2 Bft) 97,87 %
10.07.2023 08:16 19,0 C 18,9 C 14,4 C 95 % 1021,7 hPa 0,0 l/m 0 min 0 min 47 W/m 12,9 km/h (3 Bft) 95,74 %
10.07.2023 08:18 18,9 C 18,3 C 14,4 C 95 % 1021,7 hPa 0,0 l/m 0 min 0 min 41 W/m 6,4 km/h (2 Bft) 97,87 %
10.07.2023 08:20 18,9 C 18,3 C 14,4 C 94 % 1021,7 hPa 0,0 l/m 0 min 0 min 45 W/m 6,4 km/h (2 Bft) 97,87 %
10.07.2023 08:22 18,8 C 18,9 C 14,4 C 94 % 1021,8 hPa 0,0 l/m 0 min 0 min 96 W/m 9,7 km/h (2 Bft) 93,62 %
10.07.2023 08:24 18,8 C 20,6 C 14,4 C 94 % 1021,7 hPa 0,0 l/m 2 min 0 min 330 W/m 6,4 km/h (2 Bft) 95,65 %
10.07.2023 08:26 18,8 C 21,7 C 14,4 C 94 % 1021,7 hPa 0,0 l/m 2 min 0 min 348 W/m 6,4 km/h (2 Bft) 93,62 %
10.07.2023 08:28 18,9 C 22,2 C 15,0 C 94 % 1021,7 hPa 0,0 l/m 2 min 0 min 360 W/m 6,4 km/h (2 Bft) 95,74 %
10.07.2023 08:30 18,9 C 22,8 C 15,0 C 94 % 1021,8 hPa 0,0 l/m 2 min 0 min 387 W/m 9,7 km/h (2 Bft) 93,62 %
10.07.2023 08:32 19,1 C 23,3 C 16,1 C 94 % 1021,7 hPa 0,0 l/m 2 min 0 min 423 W/m 9,7 km/h (2 Bft) 95,74 %
10.07.2023 08:34 19,2 C 23,9 C 16,7 C 94 % 1021,7 hPa 0,0 l/m 2 min 0 min 437 W/m 6,4 km/h (2 Bft) 95,74 %
10.07.2023 08:36 19,3 C 23,9 C 17,2 C 94 % 1021,7 hPa 0,0 l/m 2 min 0 min 295 W/m 6,4 km/h (2 Bft) 95,74 %
10.07.2023 08:38 19,4 C 23,3 C 17,2 C 93 % 1021,7 hPa 0,0 l/m 2 min 0 min 213 W/m 6,4 km/h (2 Bft) 91,30 %
10.07.2023 08:40 19,5 C 22,8 C 17,2 C 93 % 1021,8 hPa 0,0 l/m 0 min 0 min 214 W/m 12,9 km/h (3 Bft) 93,62 %
10.07.2023 08:42 19,6 C 22,8 C 17,2 C 92 % 1021,8 hPa 0,0 l/m 2 min 0 min 285 W/m 9,7 km/h (2 Bft) 95,74 %
10.07.2023 08:44 19,6 C 21,7 C 17,2 C 91 % 1021,9 hPa 0,0 l/m 2 min 0 min 294 W/m 12,9 km/h (3 Bft) 95,74 %
10.07.2023 08:46 19,6 C 21,1 C 17,2 C 90 % 1021,9 hPa 0,0 l/m 0 min 0 min 208 W/m 6,4 km/h (2 Bft) 93,62 %
10.07.2023 08:48 19,7 C 21,1 C 17,2 C 90 % 1021,9 hPa 0,0 l/m 0 min 0 min 185 W/m 9,7 km/h (2 Bft) 95,74 %
10.07.2023 08:50 19,8 C 20,6 C 17,2 C 90 % 1021,9 hPa 0,0 l/m 0 min 0 min 156 W/m 3,2 km/h (1 Bft) 95,74 %
10.07.2023 08:52 19,8 C 21,1 C 17,2 C 90 % 1021,8 hPa 0,0 l/m 0 min 0 min 166 W/m 3,2 km/h (1 Bft) 94,74 %
10.07.2023 08:54 19,9 C 20,6 C 17,2 C 89 % 1021,9 hPa 0,0 l/m 0 min 0 min 133 W/m 3,2 km/h (1 Bft) 95,65 %
10.07.2023 08:56 19,9 C 20,6 C 16,7 C 88 % 1021,9 hPa 0,0 l/m 0 min 0 min 125 W/m 3,2 km/h (1 Bft) 97,87 %
10.07.2023 08:58 19,9 C 20,6 C 16,7 C 88 % 1021,9 hPa 0,0 l/m 0 min 0 min 134 W/m 3,2 km/h (1 Bft) 97,87 %
10.07.2023 09:00 19,9 C 21,1 C 17,2 C 88 % 1021,9 hPa 0,0 l/m 0 min 0 min 123 W/m 3,2 km/h (1 Bft) 95,83 %
10.07.2023 09:02 20,0 C 22,8 C 17,2 C 88 % 1021,9 hPa 0,0 l/m 0 min 0 min 155 W/m 16,1 km/h (3 Bft) 97,83 %
10.07.2023 09:04 20,1 C 23,9 C 17,8 C 87 % 1021,9 hPa 0,0 l/m 2 min 0 min 452 W/m 6,4 km/h (2 Bft) 97,96 %
10.07.2023 09:06 20,1 C 25,6 C 18,3 C 87 % 1021,9 hPa 0,0 l/m 2 min 0 min 457 W/m 6,4 km/h (2 Bft) 96,61 %
10.07.2023 09:08 20,2 C 25,6 C 18,9 C 86 % 1021,9 hPa 0,0 l/m 2 min 0 min 460 W/m 12,9 km/h (3 Bft) 97,14 %
10.07.2023 09:10 20,4 C 26,1 C 18,9 C 86 % 1021,8 hPa 0,0 l/m 2 min 0 min 465 W/m 12,9 km/h (3 Bft) 97,87 %
10.07.2023 09:12 20,6 C 26,7 C 19,4 C 86 % 1021,9 hPa 0,0 l/m 2 min 0 min 472 W/m 6,4 km/h (2 Bft) 93,62 %
10.07.2023 09:14 20,7 C 27,2 C 20,0 C 86 % 1021,9 hPa 0,0 l/m 2 min 0 min 481 W/m 9,7 km/h (2 Bft) 97,83 %
10.07.2023 09:16 20,8 C 27,2 C 20,0 C 85 % 1021,9 hPa 0,0 l/m 2 min 0 min 490 W/m 9,7 km/h (2 Bft) 95,74 %
10.07.2023 09:18 21,0 C 27,2 C 20,6 C 84 % 1021,9 hPa 0,0 l/m 2 min 0 min 504 W/m 9,7 km/h (2 Bft) 97,87 %
10.07.2023 09:20 21,1 C 26,1 C 20,0 C 83 % 1022,0 hPa 0,0 l/m 2 min 0 min 530 W/m 6,4 km/h (2 Bft) 97,87 %
10.07.2023 09:22 21,1 C 25,6 C 20,0 C 81 % 1021,9 hPa 0,0 l/m 2 min 0 min 569 W/m 9,7 km/h (2 Bft) 100,00 %
10.07.2023 09:24 21,1 C 24,4 C 20,0 C 80 % 1021,9 hPa 0,0 l/m 2 min 0 min 585 W/m 6,4 km/h (2 Bft) 100,00 %
10.07.2023 09:26 21,2 C 24,4 C 20,0 C 80 % 1022,0 hPa 0,0 l/m 2 min 0 min 585 W/m 12,9 km/h (3 Bft) 95,65 %
10.07.2023 09:28 21,2 C 24,4 C 20,0 C 79 % 1022,0 hPa 0,0 l/m 2 min 0 min 530 W/m 9,7 km/h (2 Bft) 97,87 %
10.07.2023 09:30 21,2 C 25,0 C 20,0 C 79 % 1022,0 hPa 0,0 l/m 2 min 0 min 508 W/m 6,4 km/h (2 Bft) 97,87 %
10.07.2023 09:32 21,2 C 25,6 C 20,0 C 79 % 1022,0 hPa 0,0 l/m 2 min 0 min 523 W/m 9,7 km/h (2 Bft) 97,87 %
10.07.2023 09:34 21,3 C 25,6 C 20,6 C 79 % 1022,0 hPa 0,0 l/m 2 min 0 min 536 W/m 3,2 km/h (1 Bft) 97,87 %
10.07.2023 09:36 21,4 C 26,1 C 20,6 C 79 % 1022,0 hPa 0,0 l/m 2 min 0 min 541 W/m 6,4 km/h (2 Bft) 97,87 %
10.07.2023 09:38 21,6 C 26,7 C 21,1 C 79 % 1022,1 hPa 0,0 l/m 2 min 0 min 547 W/m 6,4 km/h (2 Bft) 97,87 %
10.07.2023 09:40 21,6 C 26,7 C 21,1 C 77 % 1022,1 hPa 0,0 l/m 2 min 0 min 550 W/m 12,9 km/h (3 Bft) 95,65 %
10.07.2023 09:42 21,7 C 26,1 C 21,7 C 76 % 1022,1 hPa 0,0 l/m 2 min 0 min 559 W/m 6,4 km/h (2 Bft) 97,87 %
10.07.2023 09:44 21,7 C 26,7 C 21,7 C 76 % 1022,1 hPa 0,0 l/m 2 min 0 min 564 W/m 6,4 km/h (2 Bft) 97,87 %
10.07.2023 09:46 21,8 C 27,2 C 22,2 C 76 % 1022,1 hPa 0,0 l/m 2 min 0 min 572 W/m 6,4 km/h (2 Bft) 97,87 %
10.07.2023 09:48 21,8 C 26,7 C 21,7 C 73 % 1022,1 hPa 0,0 l/m 2 min 0 min 580 W/m 9,7 km/h (2 Bft) 97,87 %
10.07.2023 09:50 21,9 C 26,1 C 21,7 C 73 % 1022,1 hPa 0,0 l/m 2 min 0 min 582 W/m 9,7 km/h (2 Bft) 100,00 %
10.07.2023 09:54 22,1 C 26,1 C 22,2 C 72 % 1022,1 hPa 0,0 l/m 4 min 0 min 595 W/m 16,1 km/h (3 Bft) 100,00 %
10.07.2023 09:56 22,1 C 26,1 C 22,2 C 72 % 1022,1 hPa 0,0 l/m 2 min 0 min 603 W/m 9,7 km/h (2 Bft) 100,00 %
10.07.2023 09:58 22,2 C 26,7 C 22,8 C 74 % 1022,1 hPa 0,0 l/m 2 min 0 min 610 W/m 6,4 km/h (2 Bft) 98,00 %
10.07.2023 10:00 22,3 C 26,7 C 22,2 C 73 % 1022,0 hPa 0,0 l/m 2 min 0 min 614 W/m 9,7 km/h (2 Bft) 97,87 %
10.07.2023 10:02 22,4 C 26,7 C 22,8 C 74 % 1022,1 hPa 0,0 l/m 2 min 0 min 622 W/m 12,9 km/h (3 Bft) 100,00 %
10.07.2023 10:04 22,6 C 27,2 C 22,8 C 73 % 1022,1 hPa 0,0 l/m 2 min 0 min 624 W/m 12,9 km/h (3 Bft) 100,00 %
10.07.2023 10:06 22,6 C 26,7 C 22,2 C 71 % 1022,1 hPa 0,0 l/m 2 min 0 min 630 W/m 12,9 km/h (3 Bft) 100,00 %
10.07.2023 10:08 22,6 C 26,7 C 22,2 C 71 % 1022,1 hPa 0,0 l/m 2 min 0 min 634 W/m 9,7 km/h (2 Bft) 100,00 %
10.07.2023 10:10 22,6 C 26,7 C 21,7 C 71 % 1022,1 hPa 0,0 l/m 2 min 0 min 638 W/m 12,9 km/h (3 Bft) 100,00 %
10.07.2023 10:12 22,6 C 26,7 C 22,2 C 72 % 1022,1 hPa 0,0 l/m 2 min 0 min 645 W/m 12,9 km/h (3 Bft) 100,00 %
10.07.2023 10:14 22,7 C 27,2 C 22,2 C 72 % 1022,1 hPa 0,0 l/m 2 min 0 min 651 W/m 6,4 km/h (2 Bft) 100,00 %
10.07.2023 10:16 22,7 C 26,7 C 22,2 C 71 % 1022,1 hPa 0,0 l/m 2 min 0 min 654 W/m 9,7 km/h (2 Bft) 97,87 %
10.07.2023 10:18 22,8 C 26,7 C 22,2 C 71 % 1022,1 hPa 0,0 l/m 2 min 0 min 658 W/m 9,7 km/h (2 Bft) 100,00 %
10.07.2023 10:20 22,8 C 26,1 C 22,2 C 71 % 1022,1 hPa 0,0 l/m 2 min 0 min 663 W/m 16,1 km/h (3 Bft) 100,00 %
10.07.2023 10:22 22,8 C 26,1 C 22,2 C 70 % 1022,1 hPa 0,0 l/m 2 min 0 min 668 W/m 12,9 km/h (3 Bft) 97,87 %
10.07.2023 10:24 22,9 C 26,1 C 21,7 C 70 % 1022,1 hPa 0,0 l/m 2 min 0 min 674 W/m 12,9 km/h (3 Bft) 100,00 %
10.07.2023 10:26 22,9 C 26,1 C 22,2 C 70 % 1022,1 hPa 0,0 l/m 2 min 0 min 680 W/m 12,9 km/h (3 Bft) 100,00 %
10.07.2023 10:28 23,0 C 25,0 C 21,7 C 70 % 1022,0 hPa 0,0 l/m 2 min 0 min 682 W/m 6,4 km/h (2 Bft) 100,00 %
10.07.2023 10:30 23,1 C 25,0 C 21,7 C 69 % 1022,1 hPa 0,0 l/m 2 min 0 min 687 W/m 12,9 km/h (3 Bft) 100,00 %
10.07.2023 10:32 23,1 C 24,4 C 21,1 C 69 % 1022,1 hPa 0,0 l/m 2 min 0 min 692 W/m 12,9 km/h (3 Bft) 100,00 %
10.07.2023 10:34 23,1 C 25,0 C 21,1 C 68 % 1022,0 hPa 0,0 l/m 2 min 0 min 696 W/m 9,7 km/h (2 Bft) 100,00 %
10.07.2023 10:36 23,2 C 25,0 C 21,7 C 68 % 1022,0 hPa 0,0 l/m 2 min 0 min 701 W/m 6,4 km/h (2 Bft) 100,00 %
10.07.2023 10:38 23,2 C 24,4 C 21,7 C 68 % 1022,0 hPa 0,0 l/m 2 min 0 min 705 W/m 6,4 km/h (2 Bft) 97,87 %
10.07.2023 10:40 23,3 C 25,0 C 22,2 C 67 % 1022,0 hPa 0,0 l/m 2 min 0 min 710 W/m 9,7 km/h (2 Bft) 100,00 %
10.07.2023 10:42 23,4 C 25,0 C 22,8 C 67 % 1022,0 hPa 0,0 l/m 2 min 0 min 715 W/m 12,9 km/h (3 Bft) 100,00 %
10.07.2023 10:44 23,4 C 24,4 C 22,8 C 66 % 1022,1 hPa 0,0 l/m 2 min 0 min 718 W/m 12,9 km/h (3 Bft) 100,00 %
10.07.2023 10:46 23,4 C 24,4 C 23,3 C 66 % 1022,0 hPa 0,0 l/m 2 min 0 min 721 W/m 19,3 km/h (3 Bft) 97,87 %
10.07.2023 10:48 23,3 C 23,9 C 23,9 C 65 % 1022,0 hPa 0,0 l/m 2 min 0 min 725 W/m 9,7 km/h (2 Bft) 97,83 %
10.07.2023 10:50 23,3 C 23,9 C 23,9 C 65 % 1022,0 hPa 0,0 l/m 2 min 0 min 729 W/m 12,9 km/h (3 Bft) 97,87 %
10.07.2023 10:52 23,3 C 24,4 C 23,9 C 65 % 1022,0 hPa 0,0 l/m 2 min 0 min 733 W/m 12,9 km/h (3 Bft) 97,87 %
10.07.2023 10:54 23,4 C 25,0 C 23,9 C 66 % 1021,9 hPa 0,0 l/m 2 min 0 min 739 W/m 16,1 km/h (3 Bft) 97,87 %
10.07.2023 10:56 23,4 C 25,0 C 23,3 C 65 % 1021,9 hPa 0,0 l/m 2 min 0 min 742 W/m 12,9 km/h (3 Bft) 95,74 %
10.07.2023 10:58 23,5 C 25,0 C 22,8 C 65 % 1021,9 hPa 0,0 l/m 2 min 0 min 747 W/m 16,1 km/h (3 Bft) 95,74 %
10.07.2023 11:00 23,6 C 25,6 C 22,2 C 66 % 1021,9 hPa 0,0 l/m 2 min 0 min 748 W/m 12,9 km/h (3 Bft) 97,83 %
10.07.2023 11:02 23,6 C 25,6 C 22,2 C 66 % 1021,9 hPa 0,0 l/m 2 min 0 min 752 W/m 16,1 km/h (3 Bft) 97,87 %
10.07.2023 11:04 23,7 C 25,6 C 21,7 C 66 % 1022,0 hPa 0,0 l/m 2 min 0 min 757 W/m 12,9 km/h (3 Bft) 97,96 %
10.07.2023 11:06 23,7 C 25,6 C 21,7 C 65 % 1022,0 hPa 0,0 l/m 2 min 0 min 759 W/m 19,3 km/h (3 Bft) 98,00 %
10.07.2023 11:08 23,7 C 25,6 C 21,7 C 65 % 1021,9 hPa 0,0 l/m 2 min 0 min 763 W/m 9,7 km/h (2 Bft) 97,14 %
10.07.2023 11:10 23,7 C 25,6 C 21,7 C 65 % 1022,0 hPa 0,0 l/m 2 min 0 min 767 W/m 9,7 km/h (2 Bft) 97,87 %
10.07.2023 11:12 23,7 C 25,6 C 21,7 C 65 % 1022,0 hPa 0,0 l/m 2 min 0 min 770 W/m 19,3 km/h (3 Bft) 97,87 %
10.07.2023 11:14 23,8 C 26,1 C 21,7 C 66 % 1021,9 hPa 0,0 l/m 2 min 0 min 773 W/m 9,7 km/h (2 Bft) 97,87 %
10.07.2023 11:16 23,8 C 26,1 C 21,7 C 66 % 1021,9 hPa 0,0 l/m 2 min 0 min 778 W/m 12,9 km/h (3 Bft) 97,83 %
10.07.2023 11:18 23,8 C 26,1 C 21,7 C 65 % 1021,9 hPa 0,0 l/m 2 min 0 min 780 W/m 9,7 km/h (2 Bft) 95,74 %
10.07.2023 11:20 23,8 C 26,7 C 22,2 C 66 % 1021,9 hPa 0,0 l/m 2 min 0 min 785 W/m 12,9 km/h (3 Bft) 95,74 %
10.07.2023 11:22 23,8 C 26,7 C 22,8 C 66 % 1022,0 hPa 0,0 l/m 2 min 0 min 787 W/m 12,9 km/h (3 Bft) 97,87 %
10.07.2023 11:24 23,9 C 26,7 C 23,3 C 67 % 1022,0 hPa 0,0 l/m 2 min 0 min 794 W/m 19,3 km/h (3 Bft) 97,87 %
10.07.2023 11:26 24,0 C 26,7 C 23,3 C 65 % 1022,0 hPa 0,0 l/m 2 min 0 min 795 W/m 16,1 km/h (3 Bft) 95,74 %
10.07.2023 11:28 24,1 C 27,2 C 23,9 C 66 % 1022,0 hPa 0,0 l/m 2 min 0 min 797 W/m 12,9 km/h (3 Bft) 93,48 %
10.07.2023 11:30 24,2 C 27,2 C 24,4 C 65 % 1022,0 hPa 0,0 l/m 2 min 0 min 801 W/m 12,9 km/h (3 Bft) 95,74 %
10.07.2023 11:32 24,2 C 27,2 C 25,0 C 66 % 1022,0 hPa 0,0 l/m 2 min 0 min 806 W/m 12,9 km/h (3 Bft) 95,74 %
10.07.2023 11:34 24,3 C 27,2 C 25,6 C 65 % 1022,0 hPa 0,0 l/m 2 min 0 min 806 W/m 9,7 km/h (2 Bft) 97,87 %
10.07.2023 11:36 24,3 C 27,2 C 26,1 C 65 % 1022,0 hPa 0,0 l/m 2 min 0 min 815 W/m 6,4 km/h (2 Bft) 95,74 %
10.07.2023 11:38 24,3 C 27,8 C 25,6 C 64 % 1021,9 hPa 0,0 l/m 2 min 0 min 813 W/m 9,7 km/h (2 Bft) 95,74 %
10.07.2023 11:40 24,4 C 27,8 C 26,1 C 64 % 1021,9 hPa 0,0 l/m 2 min 0 min 817 W/m 12,9 km/h (3 Bft) 95,65 %
10.07.2023 11:42 24,4 C 27,8 C 26,1 C 64 % 1021,9 hPa 0,0 l/m 2 min 0 min 823 W/m 12,9 km/h (3 Bft) 97,87 %
10.07.2023 11:44 24,6 C 27,8 C 26,7 C 65 % 1021,9 hPa 0,0 l/m 2 min 0 min 825 W/m 12,9 km/h (3 Bft) 95,74 %
10.07.2023 11:46 24,6 C 28,3 C 27,2 C 65 % 1021,8 hPa 0,0 l/m 2 min 0 min 816 W/m 16,1 km/h (3 Bft) 95,74 %
10.07.2023 11:48 24,7 C 28,3 C 27,8 C 65 % 1021,9 hPa 0,0 l/m 2 min 0 min 838 W/m 19,3 km/h (3 Bft) 97,87 %
10.07.2023 11:50 24,7 C 28,3 C 27,2 C 64 % 1021,9 hPa 0,0 l/m 2 min 0 min 846 W/m 9,7 km/h (2 Bft) 97,87 %
10.07.2023 11:52 24,7 C 27,8 C 26,7 C 63 % 1021,9 hPa 0,0 l/m 2 min 0 min 845 W/m 6,4 km/h (2 Bft) 97,87 %
10.07.2023 11:54 24,6 C 27,8 C 26,1 C 64 % 1021,9 hPa 0,0 l/m 2 min 0 min 840 W/m 12,9 km/h (3 Bft) 95,65 %
10.07.2023 11:56 24,6 C 27,8 C 25,6 C 64 % 1021,9 hPa 0,0 l/m 2 min 0 min 825 W/m 9,7 km/h (2 Bft) 95,74 %
10.07.2023 11:58 24,7 C 28,3 C 25,6 C 65 % 1021,8 hPa 0,0 l/m 2 min 0 min 830 W/m 12,9 km/h (3 Bft) 97,87 %
10.07.2023 12:00 24,7 C 27,8 C 25,0 C 64 % 1021,9 hPa 0,0 l/m 2 min 0 min 854 W/m 9,7 km/h (2 Bft) 100,00 %
10.07.2023 12:02 24,7 C 28,9 C 25,6 C 66 % 1021,9 hPa 0,0 l/m 2 min 0 min 859 W/m 6,4 km/h (2 Bft) 97,87 %
10.07.2023 12:04 24,8 C 28,9 C 25,0 C 65 % 1021,9 hPa 0,0 l/m 2 min 0 min 849 W/m 12,9 km/h (3 Bft) 97,87 %
10.07.2023 12:07 24,9 C 28,3 C 23,9 C 64 % 1021,8 hPa 0,0 l/m 3 min 0 min 856 W/m 9,7 km/h (2 Bft) 97,87 %
10.07.2023 12:08 24,9 C 28,3 C 23,9 C 64 % 1021,8 hPa 0,0 l/m 1 min 0 min 853 W/m 9,7 km/h (2 Bft) 97,92 %
10.07.2023 12:12 25,1 C 29,4 C 23,9 C 64 % 1021,8 hPa 0,0 l/m 4 min 0 min 870 W/m 9,7 km/h (2 Bft) 97,78 %
10.07.2023 12:14 25,2 C 28,9 C 23,3 C 64 % 1021,8 hPa 0,0 l/m 2 min 0 min 891 W/m 9,7 km/h (2 Bft) 97,87 %
10.07.2023 12:16 25,2 C 28,9 C 23,9 C 64 % 1021,8 hPa 0,0 l/m 2 min 0 min 905 W/m 12,9 km/h (3 Bft) 97,96 %
10.07.2023 12:18 25,2 C 28,9 C 24,4 C 64 % 1021,9 hPa 0,0 l/m 2 min 0 min 896 W/m 12,9 km/h (3 Bft) 97,14 %
10.07.2023 12:20 25,2 C 28,9 C 25,6 C 61 % 1021,8 hPa 0,0 l/m 2 min 0 min 888 W/m 16,1 km/h (3 Bft) 98,28 %
10.07.2023 12:22 25,3 C 29,4 C 27,2 C 63 % 1021,8 hPa 0,0 l/m 2 min 0 min 882 W/m 12,9 km/h (3 Bft) 97,87 %
10.07.2023 12:24 25,4 C 30,0 C 27,8 C 62 % 1021,8 hPa 0,0 l/m 2 min 0 min 885 W/m 12,9 km/h (3 Bft) 95,74 %
10.07.2023 12:26 25,5 C 29,4 C 28,3 C 61 % 1021,9 hPa 0,0 l/m 2 min 0 min 886 W/m 19,3 km/h (3 Bft) 97,87 %
10.07.2023 12:28 25,6 C 29,4 C 29,4 C 62 % 1021,8 hPa 0,0 l/m 2 min 0 min 889 W/m 6,4 km/h (2 Bft) 94,29 %
10.07.2023 12:30 25,8 C 30,0 C 30,0 C 61 % 1021,8 hPa 0,0 l/m 2 min 0 min 894 W/m 9,7 km/h (2 Bft) 96,36 %
10.07.2023 12:32 25,8 C 30,0 C 30,0 C 60 % 1021,8 hPa 0,0 l/m 2 min 0 min 897 W/m 9,7 km/h (2 Bft) 96,00 %
10.07.2023 12:34 25,8 C 29,4 C 30,0 C 60 % 1021,8 hPa 0,0 l/m 2 min 0 min 895 W/m 12,9 km/h (3 Bft) 95,74 %
10.07.2023 12:36 25,7 C 29,4 C 30,0 C 59 % 1021,8 hPa 0,0 l/m 2 min 0 min 818 W/m 12,9 km/h (3 Bft) 97,87 %
10.07.2023 12:38 25,7 C 28,9 C 28,3 C 60 % 1021,7 hPa 0,0 l/m 2 min 0 min 830 W/m 12,9 km/h (3 Bft) 97,83 %
10.07.2023 12:40 25,6 C 28,9 C 28,9 C 61 % 1021,7 hPa 0,0 l/m 2 min 0 min 912 W/m 16,1 km/h (3 Bft) 97,87 %
10.07.2023 12:42 25,6 C 28,9 C 28,9 C 61 % 1021,8 hPa 0,0 l/m 2 min 0 min 906 W/m 16,1 km/h (3 Bft) 95,74 %
10.07.2023 12:44 25,6 C 29,4 C 30,0 C 61 % 1021,8 hPa 0,0 l/m 2 min 0 min 925 W/m 12,9 km/h (3 Bft) 97,87 %
10.07.2023 12:46 25,7 C 29,4 C 30,0 C 61 % 1021,8 hPa 0,0 l/m 2 min 0 min 897 W/m 16,1 km/h (3 Bft) 97,87 %
10.07.2023 12:48 25,7 C 29,4 C 30,6 C 60 % 1021,8 hPa 0,0 l/m 2 min 0 min 892 W/m 9,7 km/h (2 Bft) 97,87 %
10.07.2023 12:50 25,8 C 30,0 C 30,6 C 61 % 1021,8 hPa 0,0 l/m 2 min 0 min 887 W/m 9,7 km/h (2 Bft) 97,87 %
10.07.2023 12:52 25,8 C 30,0 C 29,4 C 60 % 1021,8 hPa 0,0 l/m 2 min 0 min 892 W/m 16,1 km/h (3 Bft) 95,65 %
10.07.2023 12:54 25,9 C 28,9 C 28,3 C 60 % 1021,8 hPa 0,0 l/m 2 min 0 min 942 W/m 19,3 km/h (3 Bft) 97,87 %
10.07.2023 12:56 25,8 C 29,4 C 27,8 C 60 % 1021,8 hPa 0,0 l/m 2 min 0 min 940 W/m 12,9 km/h (3 Bft) 100,00 %
10.07.2023 12:58 25,8 C 29,4 C 26,7 C 60 % 1021,7 hPa 0,0 l/m 2 min 0 min 925 W/m 12,9 km/h (3 Bft) 100,00 %
10.07.2023 13:00 25,8 C 29,4 C 26,1 C 59 % 1021,7 hPa 0,0 l/m 2 min 0 min 926 W/m 19,3 km/h (3 Bft) 100,00 %
10.07.2023 13:02 25,9 C 29,4 C 25,6 C 59 % 1021,7 hPa 0,0 l/m 2 min 0 min 926 W/m 16,1 km/h (3 Bft) 100,00 %
10.07.2023 13:04 26,1 C 30,0 C 25,0 C 59 % 1021,7 hPa 0,0 l/m 2 min 0 min 927 W/m 9,7 km/h (2 Bft) 100,00 %
10.07.2023 13:06 26,2 C 30,0 C 24,4 C 60 % 1021,8 hPa 0,0 l/m 2 min 0 min 920 W/m 16,1 km/h (3 Bft) 100,00 %
10.07.2023 13:08 26,3 C 30,6 C 23,9 C 58 % 1021,8 hPa 0,0 l/m 2 min 0 min 938 W/m 16,1 km/h (3 Bft) 100,00 %
10.07.2023 13:10 26,3 C 30,6 C 23,3 C 58 % 1021,8 hPa 0,0 l/m 2 min 0 min 945 W/m 6,4 km/h (2 Bft) 100,00 %
10.07.2023 13:12 26,3 C 30,6 C 23,3 C 59 % 1021,7 hPa 0,0 l/m 2 min 0 min 903 W/m 12,9 km/h (3 Bft) 97,87 %
10.07.2023 13:14 26,4 C 31,1 C 23,3 C 59 % 1021,8 hPa 0,0 l/m 2 min 0 min 942 W/m 9,7 km/h (2 Bft) 97,87 %
10.07.2023 13:16 26,5 C 31,1 C 23,3 C 59 % 1021,7 hPa 0,0 l/m 2 min 0 min 946 W/m 12,9 km/h (3 Bft) 100,00 %
10.07.2023 13:18 26,6 C 31,1 C 23,3 C 60 % 1021,7 hPa 0,0 l/m 2 min 0 min 962 W/m 12,9 km/h (3 Bft) 100,00 %
10.07.2023 13:20 26,7 C 31,1 C 23,3 C 58 % 1021,7 hPa 0,0 l/m 2 min 0 min 975 W/m 12,9 km/h (3 Bft) 97,87 %
10.07.2023 13:22 26,8 C 31,7 C 23,3 C 57 % 1021,6 hPa 0,0 l/m 2 min 0 min 971 W/m 16,1 km/h (3 Bft) 97,87 %
10.07.2023 13:24 26,9 C 31,7 C 23,3 C 58 % 1021,7 hPa 0,0 l/m 2 min 0 min 962 W/m 12,9 km/h (3 Bft) 95,74 %
10.07.2023 13:26 26,9 C 30,6 C 22,8 C 57 % 1021,7 hPa 0,0 l/m 2 min 0 min 970 W/m 12,9 km/h (3 Bft) 95,74 %
10.07.2023 13:28 26,8 C 30,6 C 22,8 C 56 % 1021,7 hPa 0,0 l/m 2 min 0 min 968 W/m 22,5 km/h (4 Bft) 95,74 %
10.07.2023 13:30 26,7 C 31,1 C 22,8 C 58 % 1021,7 hPa 0,0 l/m 2 min 0 min 993 W/m 19,3 km/h (3 Bft) 95,65 %
10.07.2023 13:32 26,8 C 31,7 C 23,3 C 58 % 1021,8 hPa 0,0 l/m 2 min 0 min 986 W/m 16,1 km/h (3 Bft) 91,49 %
10.07.2023 13:34 26,8 C 31,7 C 23,3 C 57 % 1021,8 hPa 0,0 l/m 2 min 0 min 976 W/m 16,1 km/h (3 Bft) 95,74 %
10.07.2023 13:36 26,9 C 32,2 C 23,9 C 57 % 1021,8 hPa 0,0 l/m 2 min 0 min 972 W/m 9,7 km/h (2 Bft) 93,62 %
10.07.2023 13:38 27,0 C 31,7 C 23,9 C 57 % 1021,8 hPa 0,0 l/m 2 min 0 min 968 W/m 9,7 km/h (2 Bft) 93,62 %
10.07.2023 13:40 27,1 C 32,2 C 24,4 C 57 % 1021,7 hPa 0,0 l/m 2 min 0 min 971 W/m 16,1 km/h (3 Bft) 95,74 %
10.07.2023 13:42 27,1 C 31,7 C 24,4 C 56 % 1021,8 hPa 0,0 l/m 2 min 0 min 983 W/m 12,9 km/h (3 Bft) 46,15 %
10.07.2023 13:44 27,0 C 31,7 C 25,0 C 56 % 1021,7 hPa 0,0 l/m 2 min 0 min 990 W/m 16,1 km/h (3 Bft) 95,65 %
10.07.2023 13:46 27,1 C 32,8 C 26,1 C 58 % 1021,8 hPa 0,0 l/m 2 min 0 min 983 W/m 9,7 km/h (2 Bft) 95,74 %
10.07.2023 13:48 27,2 C 32,2 C 26,1 C 56 % 1021,7 hPa 0,0 l/m 2 min 0 min 986 W/m 16,1 km/h (3 Bft) 95,74 %
10.07.2023 13:50 27,2 C 32,2 C 27,8 C 56 % 1021,7 hPa 0,0 l/m 2 min 0 min 977 W/m 12,9 km/h (3 Bft) 93,62 %
10.07.2023 13:52 27,2 C 32,2 C 28,9 C 56 % 1021,7 hPa 0,0 l/m 2 min 0 min 968 W/m 12,9 km/h (3 Bft) 93,62 %
10.07.2023 13:54 27,3 C 32,2 C 29,4 C 56 % 1021,8 hPa 0,0 l/m 2 min 0 min 955 W/m 9,7 km/h (2 Bft) 93,62 %
10.07.2023 13:56 27,2 C 31,7 C 29,4 C 55 % 1021,7 hPa 0,0 l/m 2 min 0 min 989 W/m 16,1 km/h (3 Bft) 95,74 %
10.07.2023 13:58 27,2 C 31,7 C 29,4 C 57 % 1021,7 hPa 0,0 l/m 2 min 0 min 990 W/m 12,9 km/h (3 Bft) 95,65 %
10.07.2023 14:00 27,2 C 32,2 C 28,9 C 57 % 1021,7 hPa 0,0 l/m 2 min 0 min 997 W/m 9,7 km/h (2 Bft) 97,87 %
10.07.2023 14:02 27,2 C 32,2 C 27,8 C 56 % 1021,7 hPa 0,0 l/m 2 min 0 min 999 W/m 16,1 km/h (3 Bft) 95,74 %
10.07.2023 14:04 27,2 C 32,2 C 26,7 C 56 % 1021,7 hPa 0,0 l/m 2 min 0 min 980 W/m 16,1 km/h (3 Bft) 97,87 %
10.07.2023 14:06 27,2 C 32,8 C 26,1 C 55 % 1021,7 hPa 0,0 l/m 2 min 0 min 968 W/m 16,1 km/h (3 Bft) 97,87 %
10.07.2023 14:08 27,2 C 31,7 C 25,6 C 54 % 1021,7 hPa 0,0 l/m 2 min 0 min 975 W/m 16,1 km/h (3 Bft) 97,87 %
10.07.2023 14:10 27,1 C 31,1 C 24,4 C 55 % 1021,7 hPa 0,0 l/m 2 min 0 min 979 W/m 16,1 km/h (3 Bft) 97,87 %
10.07.2023 14:12 26,9 C 31,7 C 24,4 C 55 % 1021,7 hPa 0,0 l/m 2 min 0 min 984 W/m 12,9 km/h (3 Bft) 97,83 %
10.07.2023 14:14 27,0 C 31,7 C 23,9 C 54 % 1021,7 hPa 0,0 l/m 2 min 0 min 978 W/m 12,9 km/h (3 Bft) 100,00 %
10.07.2023 14:16 27,1 C 31,7 C 23,9 C 55 % 1021,7 hPa 0,0 l/m 2 min 0 min 984 W/m 16,1 km/h (3 Bft) 100,00 %
10.07.2023 14:18 27,2 C 32,8 C 23,9 C 55 % 1021,7 hPa 0,0 l/m 2 min 0 min 1006 W/m 9,7 km/h (2 Bft) 100,00 %
10.07.2023 14:20 27,3 C 32,8 C 23,9 C 53 % 1021,7 hPa 0,0 l/m 2 min 0 min 1009 W/m 12,9 km/h (3 Bft) 100,00 %
10.07.2023 14:22 27,4 C 31,7 C 23,9 C 53 % 1021,7 hPa 0,0 l/m 2 min 0 min 1015 W/m 19,3 km/h (3 Bft) 95,74 %
10.07.2023 14:24 27,4 C 32,2 C 23,9 C 54 % 1021,7 hPa 0,0 l/m 2 min 0 min 1031 W/m 16,1 km/h (3 Bft) 100,00 %
10.07.2023 14:26 27,4 C 32,2 C 23,9 C 54 % 1021,6 hPa 0,0 l/m 2 min 0 min 1032 W/m 19,3 km/h (3 Bft) 97,87 %
10.07.2023 14:28 27,3 C 32,2 C 23,3 C 55 % 1021,6 hPa 0,0 l/m 2 min 0 min 1015 W/m 16,1 km/h (3 Bft) 100,00 %
10.07.2023 14:30 27,3 C 31,7 C 23,3 C 54 % 1021,7 hPa 0,0 l/m 2 min 0 min 1026 W/m 19,3 km/h (3 Bft) 100,00 %
10.07.2023 14:32 27,3 C 31,1 C 23,3 C 55 % 1021,6 hPa 0,0 l/m 2 min 0 min 1064 W/m 9,7 km/h (2 Bft) 100,00 %
10.07.2023 14:34 27,3 C 30,0 C 23,3 C 56 % 1021,6 hPa 0,0 l/m 2 min 0 min 758 W/m 9,7 km/h (2 Bft) 100,00 %
10.07.2023 14:36 27,3 C 29,4 C 23,3 C 55 % 1021,6 hPa 0,0 l/m 0 min 0 min 258 W/m 9,7 km/h (2 Bft) 97,87 %
10.07.2023 14:38 27,2 C 28,3 C 23,3 C 55 % 1021,6 hPa 0,0 l/m 0 min 0 min 258 W/m 6,4 km/h (2 Bft) 100,00 %
10.07.2023 14:40 27,1 C 28,9 C 22,8 C 57 % 1021,5 hPa 0,0 l/m 0 min 0 min 258 W/m 16,1 km/h (3 Bft) 100,00 %
10.07.2023 14:42 27,1 C 30,6 C 22,8 C 56 % 1021,5 hPa 0,0 l/m 2 min 0 min 661 W/m 16,1 km/h (3 Bft) 97,87 %
10.07.2023 14:44 27,1 C 31,1 C 22,8 C 57 % 1021,4 hPa 0,0 l/m 2 min 0 min 981 W/m 16,1 km/h (3 Bft) 97,87 %
10.07.2023 14:46 27,2 C 32,8 C 23,3 C 57 % 1021,4 hPa 0,0 l/m 2 min 0 min 971 W/m 16,1 km/h (3 Bft) 100,00 %
10.07.2023 14:48 27,3 C 33,3 C 23,3 C 56 % 1021,4 hPa 0,0 l/m 2 min 0 min 956 W/m 12,9 km/h (3 Bft) 100,00 %
10.07.2023 14:50 27,4 C 32,8 C 23,3 C 54 % 1021,4 hPa 0,0 l/m 2 min 0 min 940 W/m 22,5 km/h (4 Bft) 97,83 %
10.07.2023 14:52 27,4 C 32,2 C 23,3 C 55 % 1021,4 hPa 0,0 l/m 2 min 0 min 948 W/m 12,9 km/h (3 Bft) 97,87 %
10.07.2023 14:54 27,4 C 32,2 C 23,3 C 54 % 1021,4 hPa 0,0 l/m 2 min 0 min 951 W/m 22,5 km/h (4 Bft) 97,62 %
10.07.2023 14:56 27,5 C 32,2 C 23,3 C 55 % 1021,4 hPa 0,0 l/m 2 min 0 min 964 W/m 19,3 km/h (3 Bft) 97,92 %
10.07.2023 14:58 27,4 C 31,7 C 23,3 C 53 % 1021,4 hPa 0,0 l/m 2 min 0 min 979 W/m 12,9 km/h (3 Bft) 98,00 %
10.07.2023 15:00 27,4 C 31,7 C 22,8 C 54 % 1021,4 hPa 0,0 l/m 2 min 0 min 973 W/m 22,5 km/h (4 Bft) 97,87 %
10.07.2023 15:02 27,4 C 32,8 C 23,3 C 55 % 1021,4 hPa 0,0 l/m 2 min 0 min 932 W/m 9,7 km/h (2 Bft) 93,48 %
10.07.2023 15:04 27,5 C 32,2 C 23,3 C 54 % 1021,4 hPa 0,0 l/m 2 min 0 min 998 W/m 9,7 km/h (2 Bft) 97,92 %
10.07.2023 15:06 27,5 C 32,2 C 23,3 C 54 % 1021,4 hPa 0,0 l/m 2 min 0 min 995 W/m 19,3 km/h (3 Bft) 95,83 %
10.07.2023 15:08 27,4 C 31,1 C 23,3 C 54 % 1021,4 hPa 0,0 l/m 2 min 0 min 991 W/m 19,3 km/h (3 Bft) 97,14 %
10.07.2023 15:10 27,4 C 29,4 C 22,8 C 55 % 1021,4 hPa 0,0 l/m 2 min 0 min 422 W/m 9,7 km/h (2 Bft) 97,87 %
10.07.2023 15:12 27,3 C 28,3 C 22,8 C 54 % 1021,4 hPa 0,0 l/m 0 min 0 min 181 W/m 6,4 km/h (2 Bft) 97,87 %
10.07.2023 15:14 27,2 C 29,4 C 22,8 C 55 % 1021,4 hPa 0,0 l/m 2 min 0 min 440 W/m 9,7 km/h (2 Bft) 95,74 %
10.07.2023 15:16 27,1 C 30,6 C 22,8 C 55 % 1021,3 hPa 0,0 l/m 2 min 0 min 944 W/m 6,4 km/h (2 Bft) 97,83 %
10.07.2023 15:18 27,2 C 31,7 C 22,8 C 55 % 1021,3 hPa 0,0 l/m 2 min 0 min 905 W/m 9,7 km/h (2 Bft) 97,87 %
10.07.2023 15:20 27,2 C 31,1 C 22,8 C 56 % 1021,3 hPa 0,0 l/m 2 min 0 min 888 W/m 16,1 km/h (3 Bft) 93,62 %
10.07.2023 15:22 27,2 C 31,7 C 22,8 C 56 % 1021,3 hPa 0,0 l/m 2 min 0 min 877 W/m 12,9 km/h (3 Bft) 95,74 %
10.07.2023 15:24 27,3 C 31,7 C 22,8 C 55 % 1021,3 hPa 0,0 l/m 2 min 0 min 881 W/m 12,9 km/h (3 Bft) 95,74 %
10.07.2023 15:26 27,4 C 32,2 C 22,8 C 55 % 1021,3 hPa 0,0 l/m 2 min 0 min 872 W/m 16,1 km/h (3 Bft) 95,74 %
10.07.2023 15:28 27,4 C 32,2 C 23,3 C 55 % 1021,3 hPa 0,0 l/m 2 min 0 min 882 W/m 9,7 km/h (2 Bft) 95,74 %
10.07.2023 15:30 27,6 C 32,8 C 23,3 C 54 % 1021,3 hPa 0,0 l/m 2 min 0 min 883 W/m 19,3 km/h (3 Bft) 95,65 %
10.07.2023 15:32 27,7 C 32,2 C 23,3 C 55 % 1021,4 hPa 0,0 l/m 2 min 0 min 880 W/m 19,3 km/h (3 Bft) 93,62 %
10.07.2023 15:34 27,7 C 32,2 C 23,3 C 54 % 1021,3 hPa 0,0 l/m 2 min 0 min 886 W/m 9,7 km/h (2 Bft) 95,74 %
10.07.2023 15:36 27,8 C 32,2 C 23,3 C 54 % 1021,3 hPa 0,0 l/m 2 min 0 min 889 W/m 12,9 km/h (3 Bft) 95,74 %
10.07.2023 15:38 27,9 C 32,8 C 23,3 C 54 % 1021,2 hPa 0,0 l/m 2 min 0 min 893 W/m 12,9 km/h (3 Bft) 95,74 %
10.07.2023 15:40 27,9 C 32,2 C 23,3 C 53 % 1021,2 hPa 0,0 l/m 2 min 0 min 573 W/m 12,9 km/h (3 Bft) 97,87 %
10.07.2023 15:42 27,9 C 30,6 C 23,3 C 52 % 1021,2 hPa 0,0 l/m 0 min 0 min 199 W/m 9,7 km/h (2 Bft) 95,74 %
10.07.2023 15:44 27,9 C 31,7 C 23,3 C 54 % 1021,2 hPa 0,0 l/m 2 min 0 min 773 W/m 6,4 km/h (2 Bft) 95,65 %
10.07.2023 15:46 27,9 C 31,7 C 23,3 C 53 % 1021,2 hPa 0,0 l/m 2 min 0 min 931 W/m 16,1 km/h (3 Bft) 97,87 %
10.07.2023 15:48 27,9 C 30,6 C 23,3 C 53 % 1021,2 hPa 0,0 l/m 2 min 0 min 921 W/m 9,7 km/h (2 Bft) 97,87 %
10.07.2023 15:50 27,8 C 30,0 C 22,8 C 53 % 1021,2 hPa 0,0 l/m 2 min 0 min 921 W/m 19,3 km/h (3 Bft) 97,87 %
10.07.2023 15:52 27,7 C 28,9 C 22,8 C 54 % 1021,2 hPa 0,0 l/m 2 min 0 min 921 W/m 9,7 km/h (2 Bft) 100,00 %
10.07.2023 15:54 27,6 C 27,8 C 22,8 C 54 % 1021,2 hPa 0,0 l/m 2 min 0 min 397 W/m 9,7 km/h (2 Bft) 97,87 %
10.07.2023 15:56 27,4 C 27,2 C 22,8 C 54 % 1021,2 hPa 0,0 l/m 0 min 0 min 182 W/m 12,9 km/h (3 Bft) 97,87 %
10.07.2023 15:58 27,3 C 27,8 C 22,8 C 54 % 1021,2 hPa 0,0 l/m 0 min 0 min 211 W/m 9,7 km/h (2 Bft) 100,00 %
10.07.2023 16:00 27,3 C 27,2 C 22,8 C 54 % 1021,2 hPa 0,0 l/m 0 min 0 min 232 W/m 9,7 km/h (2 Bft) 100,00 %
10.07.2023 16:02 27,1 C 26,7 C 22,2 C 55 % 1021,2 hPa 0,0 l/m 0 min 0 min 202 W/m 9,7 km/h (2 Bft) 100,00 %
10.07.2023 16:04 27,0 C 26,1 C 22,2 C 55 % 1021,2 hPa 0,0 l/m 0 min 0 min 200 W/m 12,9 km/h (3 Bft) 100,00 %
10.07.2023 16:06 26,8 C 26,7 C 22,2 C 55 % 1021,2 hPa 0,0 l/m 0 min 0 min 279 W/m 6,4 km/h (2 Bft) 98,28 %
10.07.2023 16:08 26,7 C 28,3 C 22,2 C 54 % 1021,2 hPa 0,0 l/m 0 min 0 min 345 W/m 9,7 km/h (2 Bft) 94,44 %
10.07.2023 16:10 26,7 C 30,0 C 22,8 C 56 % 1021,1 hPa 0,0 l/m 2 min 0 min 896 W/m 6,4 km/h (2 Bft) 97,83 %
10.07.2023 16:12 26,8 C 30,6 C 22,8 C 55 % 1021,2 hPa 0,0 l/m 2 min 0 min 865 W/m 16,1 km/h (3 Bft) 97,83 %
10.07.2023 16:14 26,9 C 31,1 C 23,3 C 55 % 1021,0 hPa 0,0 l/m 2 min 0 min 840 W/m 12,9 km/h (3 Bft) 95,74 %
10.07.2023 16:16 27,0 C 31,1 C 23,3 C 54 % 1021,0 hPa 0,0 l/m 2 min 0 min 818 W/m 19,3 km/h (3 Bft) 95,83 %
10.07.2023 16:18 27,1 C 31,7 C 23,3 C 54 % 1021,1 hPa 0,0 l/m 2 min 0 min 817 W/m 9,7 km/h (2 Bft) 95,74 %
10.07.2023 16:20 27,2 C 32,2 C 23,3 C 53 % 1021,1 hPa 0,0 l/m 2 min 0 min 815 W/m 16,1 km/h (3 Bft) 97,87 %
10.07.2023 16:22 27,3 C 32,2 C 23,3 C 53 % 1021,1 hPa 0,0 l/m 2 min 0 min 818 W/m 12,9 km/h (3 Bft) 97,87 %
10.07.2023 16:24 27,4 C 32,2 C 23,3 C 53 % 1021,1 hPa 0,0 l/m 2 min 0 min 813 W/m 12,9 km/h (3 Bft) 97,83 %
10.07.2023 16:26 27,6 C 32,2 C 23,3 C 53 % 1021,1 hPa 0,0 l/m 2 min 0 min 808 W/m 16,1 km/h (3 Bft) 97,87 %
10.07.2023 16:28 27,7 C 32,2 C 23,3 C 53 % 1021,1 hPa 0,0 l/m 2 min 0 min 789 W/m 12,9 km/h (3 Bft) 95,74 %
10.07.2023 16:30 27,8 C 31,7 C 23,3 C 52 % 1021,1 hPa 0,0 l/m 2 min 0 min 780 W/m 12,9 km/h (3 Bft) 97,87 %
10.07.2023 16:32 27,8 C 31,7 C 23,3 C 53 % 1021,1 hPa 0,0 l/m 2 min 0 min 780 W/m 19,3 km/h (3 Bft) 95,74 %
10.07.2023 16:34 27,9 C 31,7 C 23,9 C 53 % 1021,1 hPa 0,0 l/m 2 min 0 min 796 W/m 22,5 km/h (4 Bft) 97,87 %
10.07.2023 16:36 27,9 C 32,2 C 23,9 C 52 % 1021,1 hPa 0,0 l/m 2 min 0 min 757 W/m 6,4 km/h (2 Bft) 97,87 %
10.07.2023 16:38 27,9 C 31,7 C 23,3 C 53 % 1021,1 hPa 0,0 l/m 2 min 0 min 724 W/m 6,4 km/h (2 Bft) 97,83 %
10.07.2023 16:40 27,9 C 31,7 C 23,3 C 53 % 1021,1 hPa 0,0 l/m 0 min 0 min 274 W/m 3,2 km/h (1 Bft) 97,87 %
10.07.2023 16:42 27,8 C 31,1 C 23,3 C 51 % 1021,1 hPa 0,0 l/m 2 min 0 min 628 W/m 9,7 km/h (2 Bft) 97,87 %
10.07.2023 16:44 27,8 C 31,7 C 23,3 C 52 % 1021,1 hPa 0,0 l/m 2 min 0 min 775 W/m 12,9 km/h (3 Bft) 97,87 %
10.07.2023 16:46 27,8 C 31,7 C 23,3 C 52 % 1021,1 hPa 0,0 l/m 2 min 0 min 795 W/m 6,4 km/h (2 Bft) 97,87 %
10.07.2023 16:48 27,8 C 31,1 C 23,3 C 51 % 1021,0 hPa 0,0 l/m 2 min 0 min 770 W/m 6,4 km/h (2 Bft) 95,74 %
10.07.2023 16:50 27,7 C 31,1 C 22,8 C 50 % 1021,0 hPa 0,0 l/m 2 min 0 min 761 W/m 12,9 km/h (3 Bft) 100,00 %
10.07.2023 16:52 27,7 C 31,1 C 23,3 C 51 % 1020,9 hPa 0,0 l/m 2 min 0 min 717 W/m 12,9 km/h (3 Bft) 100,00 %
10.07.2023 16:54 27,7 C 30,6 C 23,3 C 51 % 1021,0 hPa 0,0 l/m 2 min 0 min 717 W/m 6,4 km/h (2 Bft) 97,87 %
10.07.2023 16:56 27,6 C 30,0 C 23,3 C 53 % 1020,9 hPa 0,0 l/m 2 min 0 min 684 W/m 6,4 km/h (2 Bft) 100,00 %
10.07.2023 16:58 27,6 C 28,9 C 23,3 C 53 % 1020,9 hPa 0,0 l/m 0 min 0 min 176 W/m 16,1 km/h (3 Bft) 100,00 %
10.07.2023 17:00 27,4 C 28,3 C 22,8 C 50 % 1020,9 hPa 0,0 l/m 0 min 0 min 161 W/m 16,1 km/h (3 Bft) 100,00 %
10.07.2023 17:02 27,3 C 28,9 C 22,8 C 51 % 1020,8 hPa 0,0 l/m 2 min 0 min 516 W/m 12,9 km/h (3 Bft) 97,87 %
10.07.2023 17:04 27,3 C 30,0 C 22,8 C 51 % 1020,9 hPa 0,0 l/m 2 min 0 min 745 W/m 12,9 km/h (3 Bft) 97,92 %
10.07.2023 17:06 27,4 C 31,7 C 23,3 C 51 % 1020,8 hPa 0,0 l/m 2 min 0 min 738 W/m 9,7 km/h (2 Bft) 98,31 %
10.07.2023 17:08 27,5 C 31,7 C 23,3 C 51 % 1020,8 hPa 0,0 l/m 2 min 0 min 735 W/m 12,9 km/h (3 Bft) 100,00 %
10.07.2023 17:10 27,6 C 32,2 C 23,9 C 52 % 1020,8 hPa 0,0 l/m 2 min 0 min 729 W/m 6,4 km/h (2 Bft) 95,74 %
10.07.2023 17:12 27,7 C 31,7 C 23,9 C 52 % 1020,7 hPa 0,0 l/m 2 min 0 min 724 W/m 9,7 km/h (2 Bft) 95,74 %
10.07.2023 17:14 27,8 C 31,7 C 23,9 C 52 % 1020,7 hPa 0,0 l/m 2 min 0 min 688 W/m 6,4 km/h (2 Bft) 97,87 %
10.07.2023 17:16 27,8 C 32,2 C 23,9 C 51 % 1020,7 hPa 0,0 l/m 2 min 0 min 671 W/m 16,1 km/h (3 Bft) 97,83 %
10.07.2023 17:18 27,9 C 32,2 C 23,9 C 50 % 1020,7 hPa 0,0 l/m 2 min 0 min 660 W/m 12,9 km/h (3 Bft) 97,87 %
10.07.2023 17:20 27,9 C 32,2 C 23,9 C 50 % 1020,7 hPa 0,0 l/m 2 min 0 min 657 W/m 9,7 km/h (2 Bft) 97,87 %
10.07.2023 17:22 28,0 C 32,2 C 23,9 C 50 % 1020,7 hPa 0,0 l/m 2 min 0 min 652 W/m 6,4 km/h (2 Bft) 97,87 %
10.07.2023 17:24 28,1 C 32,8 C 23,9 C 50 % 1020,7 hPa 0,0 l/m 2 min 0 min 646 W/m 9,7 km/h (2 Bft) 97,87 %
10.07.2023 17:26 28,2 C 32,8 C 23,9 C 51 % 1020,7 hPa 0,0 l/m 2 min 0 min 642 W/m 12,9 km/h (3 Bft) 97,87 %
10.07.2023 17:28 28,2 C 32,2 C 23,9 C 51 % 1020,6 hPa 0,0 l/m 2 min 0 min 630 W/m 9,7 km/h (2 Bft) 95,74 %
10.07.2023 17:30 28,2 C 32,2 C 23,9 C 50 % 1020,6 hPa 0,0 l/m 2 min 0 min 621 W/m 12,9 km/h (3 Bft) 97,83 %
10.07.2023 17:32 28,1 C 31,7 C 23,9 C 49 % 1020,6 hPa 0,0 l/m 2 min 0 min 617 W/m 12,9 km/h (3 Bft) 93,62 %
10.07.2023 17:34 28,1 C 31,7 C 23,9 C 50 % 1020,6 hPa 0,0 l/m 2 min 0 min 609 W/m 12,9 km/h (3 Bft) 95,74 %
10.07.2023 17:36 28,1 C 31,7 C 23,9 C 50 % 1020,6 hPa 0,0 l/m 2 min 0 min 600 W/m 12,9 km/h (3 Bft) 95,74 %
10.07.2023 17:38 28,1 C 31,7 C 23,9 C 50 % 1020,5 hPa 0,0 l/m 2 min 0 min 591 W/m 9,7 km/h (2 Bft) 95,74 %
10.07.2023 17:40 28,1 C 32,2 C 23,9 C 51 % 1020,5 hPa 0,0 l/m 2 min 0 min 579 W/m 6,4 km/h (2 Bft) 97,87 %
10.07.2023 17:42 28,2 C 32,2 C 23,9 C 51 % 1020,6 hPa 0,0 l/m 2 min 0 min 589 W/m 9,7 km/h (2 Bft) 100,00 %
10.07.2023 17:44 28,2 C 31,7 C 23,9 C 50 % 1020,6 hPa 0,0 l/m 2 min 0 min 585 W/m 12,9 km/h (3 Bft) 97,87 %
10.07.2023 17:46 28,2 C 31,7 C 23,9 C 50 % 1020,6 hPa 0,0 l/m 2 min 0 min 580 W/m 9,7 km/h (2 Bft) 97,87 %
10.07.2023 17:48 28,1 C 31,7 C 23,9 C 49 % 1020,5 hPa 0,0 l/m 2 min 0 min 573 W/m 6,4 km/h (2 Bft) 97,87 %
10.07.2023 17:50 28,1 C 31,7 C 23,9 C 50 % 1020,5 hPa 0,0 l/m 2 min 0 min 575 W/m 9,7 km/h (2 Bft) 97,87 %
10.07.2023 17:52 28,1 C 30,6 C 23,9 C 51 % 1020,5 hPa 0,0 l/m 0 min 0 min 236 W/m 6,4 km/h (2 Bft) 97,87 %
10.07.2023 17:54 28,1 C 28,9 C 23,3 C 50 % 1020,5 hPa 0,0 l/m 0 min 0 min 114 W/m 6,4 km/h (2 Bft) 97,87 %
10.07.2023 17:56 28,0 C 28,9 C 23,3 C 51 % 1020,5 hPa 0,0 l/m 0 min 0 min 141 W/m 6,4 km/h (2 Bft) 97,83 %
10.07.2023 17:58 27,9 C 30,0 C 23,3 C 51 % 1020,5 hPa 0,0 l/m 2 min 0 min 457 W/m 0,0 km/h (0 Bft) 97,87 %
10.07.2023 18:00 27,9 C 31,1 C 23,3 C 52 % 1020,5 hPa 0,0 l/m 2 min 0 min 558 W/m 0,0 km/h (0 Bft) 97,87 %
10.07.2023 18:02 27,8 C 31,1 C 23,3 C 51 % 1020,4 hPa 0,0 l/m 2 min 0 min 534 W/m 6,4 km/h (2 Bft) 93,62 %
10.07.2023 18:04 27,8 C 31,7 C 23,3 C 51 % 1020,4 hPa 0,0 l/m 2 min 0 min 522 W/m 6,4 km/h (2 Bft) 97,96 %
10.07.2023 18:08 27,8 C 32,8 C 23,9 C 52 % 1020,3 hPa 0,0 l/m 4 min 0 min 511 W/m 9,7 km/h (2 Bft) 96,74 %
10.07.2023 18:10 27,8 C 32,2 C 23,9 C 50 % 1020,3 hPa 0,0 l/m 2 min 0 min 503 W/m 3,2 km/h (1 Bft) 97,87 %
10.07.2023 18:12 27,8 C 32,8 C 23,9 C 51 % 1020,2 hPa 0,0 l/m 2 min 0 min 490 W/m 6,4 km/h (2 Bft) 97,83 %
10.07.2023 18:16 27,8 C 32,2 C 23,9 C 50 % 1020,2 hPa 0,0 l/m 4 min 0 min 487 W/m 9,7 km/h (2 Bft) 97,87 %
10.07.2023 18:18 27,9 C 32,8 C 23,9 C 51 % 1020,2 hPa 0,0 l/m 2 min 0 min 473 W/m 9,7 km/h (2 Bft) 97,87 %
10.07.2023 18:20 28,1 C 32,8 C 24,4 C 53 % 1020,1 hPa 0,0 l/m 2 min 0 min 441 W/m 6,4 km/h (2 Bft) 97,87 %
10.07.2023 18:22 28,1 C 32,8 C 23,9 C 51 % 1020,1 hPa 0,0 l/m 2 min 0 min 458 W/m 3,2 km/h (1 Bft) 97,87 %
10.07.2023 18:24 28,2 C 32,8 C 24,4 C 50 % 1020,1 hPa 0,0 l/m 2 min 0 min 449 W/m 6,4 km/h (2 Bft) 97,83 %
10.07.2023 18:26 28,2 C 32,2 C 23,9 C 50 % 1020,1 hPa 0,0 l/m 2 min 0 min 467 W/m 12,9 km/h (3 Bft) 97,87 %
10.07.2023 18:28 28,2 C 31,7 C 23,9 C 50 % 1020,0 hPa 0,0 l/m 2 min 0 min 424 W/m 16,1 km/h (3 Bft) 97,87 %
10.07.2023 18:30 28,1 C 32,2 C 23,9 C 50 % 1020,0 hPa 0,0 l/m 2 min 0 min 432 W/m 9,7 km/h (2 Bft) 100,00 %
10.07.2023 18:32 28,1 C 31,7 C 24,4 C 51 % 1020,0 hPa 0,0 l/m 2 min 0 min 397 W/m 9,7 km/h (2 Bft) 97,87 %
10.07.2023 18:34 28,1 C 31,7 C 23,9 C 51 % 1020,0 hPa 0,0 l/m 2 min 0 min 356 W/m 16,1 km/h (3 Bft) 95,74 %
10.07.2023 18:36 28,1 C 30,6 C 23,9 C 50 % 1020,1 hPa 0,0 l/m 0 min 0 min 211 W/m 9,7 km/h (2 Bft) 97,87 %
10.07.2023 18:38 27,9 C 28,9 C 23,9 C 50 % 1020,0 hPa 0,0 l/m 0 min 0 min 99 W/m 12,9 km/h (3 Bft) 100,00 %
10.07.2023 18:40 27,8 C 30,0 C 23,9 C 50 % 1020,0 hPa 0,0 l/m 0 min 0 min 171 W/m 12,9 km/h (3 Bft) 100,00 %
10.07.2023 18:42 27,7 C 30,0 C 23,3 C 50 % 1020,0 hPa 0,0 l/m 2 min 0 min 397 W/m 6,4 km/h (2 Bft) 100,00 %
10.07.2023 18:44 27,7 C 31,1 C 23,9 C 50 % 1020,0 hPa 0,0 l/m 2 min 0 min 414 W/m 6,4 km/h (2 Bft) 100,00 %
10.07.2023 18:46 27,7 C 31,7 C 23,9 C 51 % 1020,0 hPa 0,0 l/m 2 min 0 min 420 W/m 6,4 km/h (2 Bft) 97,87 %
10.07.2023 18:48 27,7 C 32,2 C 23,9 C 51 % 1020,0 hPa 0,0 l/m 2 min 0 min 410 W/m 6,4 km/h (2 Bft) 95,74 %
10.07.2023 18:50 27,8 C 32,2 C 23,9 C 51 % 1020,0 hPa 0,0 l/m 2 min 0 min 392 W/m 6,4 km/h (2 Bft) 95,65 %
10.07.2023 18:52 27,8 C 32,8 C 23,9 C 50 % 1019,9 hPa 0,0 l/m 2 min 0 min 382 W/m 9,7 km/h (2 Bft) 97,87 %
10.07.2023 18:54 27,8 C 31,1 C 23,9 C 50 % 1019,9 hPa 0,0 l/m 2 min 0 min 329 W/m 6,4 km/h (2 Bft) 97,87 %
10.07.2023 18:56 27,8 C 30,0 C 23,9 C 51 % 1019,9 hPa 0,0 l/m 0 min 0 min 88 W/m 3,2 km/h (1 Bft) 97,87 %
10.07.2023 18:58 27,8 C 29,4 C 23,3 C 50 % 1019,9 hPa 0,0 l/m 0 min 0 min 130 W/m 9,7 km/h (2 Bft) 95,74 %
10.07.2023 19:00 27,8 C 30,0 C 23,3 C 51 % 1019,9 hPa 0,0 l/m 2 min 0 min 257 W/m 3,2 km/h (1 Bft) 95,74 %
10.07.2023 19:02 27,7 C 30,6 C 23,3 C 51 % 1019,9 hPa 0,0 l/m 2 min 0 min 337 W/m 6,4 km/h (2 Bft) 93,62 %
10.07.2023 19:04 27,7 C 31,1 C 23,3 C 51 % 1019,9 hPa 0,0 l/m 2 min 0 min 333 W/m 12,9 km/h (3 Bft) 95,65 %
10.07.2023 19:06 27,7 C 30,6 C 23,3 C 50 % 1019,9 hPa 0,0 l/m 2 min 0 min 338 W/m 6,4 km/h (2 Bft) 93,55 %
10.07.2023 19:08 27,7 C 31,1 C 23,3 C 51 % 1019,8 hPa 0,0 l/m 2 min 0 min 320 W/m 3,2 km/h (1 Bft) 97,14 %
10.07.2023 19:10 27,7 C 30,6 C 23,3 C 50 % 1019,8 hPa 0,0 l/m 2 min 0 min 281 W/m 3,2 km/h (1 Bft) 95,74 %
10.07.2023 19:12 27,7 C 31,1 C 23,3 C 51 % 1019,8 hPa 0,0 l/m 2 min 0 min 291 W/m 3,2 km/h (1 Bft) 95,74 %
10.07.2023 19:14 27,7 C 31,1 C 23,3 C 50 % 1019,8 hPa 0,0 l/m 2 min 0 min 283 W/m 6,4 km/h (2 Bft) 95,74 %
10.07.2023 19:16 27,7 C 30,6 C 23,3 C 50 % 1019,8 hPa 0,0 l/m 2 min 0 min 279 W/m 9,7 km/h (2 Bft) 93,48 %
10.07.2023 19:18 27,7 C 30,0 C 23,3 C 51 % 1019,8 hPa 0,0 l/m 2 min 0 min 211 W/m 9,7 km/h (2 Bft) 95,74 %
10.07.2023 19:20 27,7 C 29,4 C 23,3 C 50 % 1019,8 hPa 0,0 l/m 2 min 0 min 230 W/m 9,7 km/h (2 Bft) 93,62 %
10.07.2023 19:22 27,7 C 30,0 C 22,8 C 50 % 1019,8 hPa 0,0 l/m 2 min 0 min 277 W/m 3,2 km/h (1 Bft) 93,62 %
10.07.2023 19:24 27,6 C 30,0 C 22,8 C 51 % 1019,7 hPa 0,0 l/m 2 min 0 min 272 W/m 3,2 km/h (1 Bft) 95,74 %
10.07.2023 19:26 27,7 C 30,6 C 22,8 C 51 % 1019,8 hPa 0,0 l/m 2 min 0 min 266 W/m 6,4 km/h (2 Bft) 95,74 %
10.07.2023 19:28 27,7 C 30,6 C 22,8 C 50 % 1019,7 hPa 0,0 l/m 2 min 0 min 267 W/m 9,7 km/h (2 Bft) 95,74 %
10.07.2023 19:30 27,7 C 30,0 C 22,8 C 50 % 1019,7 hPa 0,0 l/m 2 min 0 min 260 W/m 16,1 km/h (3 Bft) 100,00 %
10.07.2023 19:32 27,7 C 30,0 C 22,8 C 50 % 1019,7 hPa 0,0 l/m 2 min 0 min 246 W/m 6,4 km/h (2 Bft) 100,00 %
10.07.2023 19:34 27,6 C 30,0 C 22,8 C 51 % 1019,7 hPa 0,0 l/m 2 min 0 min 242 W/m 3,2 km/h (1 Bft) 100,00 %
10.07.2023 19:36 27,6 C 29,4 C 22,8 C 50 % 1019,7 hPa 0,0 l/m 2 min 0 min 233 W/m 3,2 km/h (1 Bft) 97,87 %
10.07.2023 19:38 27,7 C 28,9 C 22,8 C 51 % 1019,7 hPa 0,0 l/m 2 min 0 min 230 W/m 3,2 km/h (1 Bft) 100,00 %
10.07.2023 19:40 27,7 C 27,8 C 22,8 C 52 % 1019,6 hPa 0,0 l/m 2 min 0 min 228 W/m 0,0 km/h (0 Bft) 100,00 %
10.07.2023 19:42 27,7 C 27,2 C 22,2 C 53 % 1019,6 hPa 0,0 l/m 2 min 0 min 217 W/m 0,0 km/h (0 Bft) 97,87 %
10.07.2023 19:44 27,6 C 26,7 C 22,2 C 52 % 1019,6 hPa 0,0 l/m 2 min 0 min 211 W/m 0,0 km/h (0 Bft) 100,00 %
10.07.2023 19:46 27,5 C 26,7 C 22,2 C 52 % 1019,6 hPa 0,0 l/m 2 min 0 min 183 W/m 6,4 km/h (2 Bft) 100,00 %
10.07.2023 19:48 27,4 C 26,7 C 22,2 C 52 % 1019,6 hPa 0,0 l/m 2 min 0 min 160 W/m 6,4 km/h (2 Bft) 100,00 %
10.07.2023 19:50 27,3 C 26,1 C 22,2 C 52 % 1019,6 hPa 0,0 l/m 2 min 0 min 150 W/m 6,4 km/h (2 Bft) 100,00 %
10.07.2023 19:52 27,3 C 26,1 C 22,2 C 51 % 1019,6 hPa 0,0 l/m 2 min 0 min 158 W/m 6,4 km/h (2 Bft) 100,00 %
10.07.2023 19:54 27,3 C 26,1 C 22,2 C 53 % 1019,6 hPa 0,0 l/m 2 min 0 min 146 W/m 3,2 km/h (1 Bft) 100,00 %
10.07.2023 19:56 27,2 C 26,1 C 22,2 C 52 % 1019,6 hPa 0,0 l/m 2 min 0 min 138 W/m 3,2 km/h (1 Bft) 100,00 %
10.07.2023 19:58 27,2 C 26,1 C 22,2 C 55 % 1019,6 hPa 0,0 l/m 0 min 0 min 99 W/m 3,2 km/h (1 Bft) 100,00 %
10.07.2023 20:00 27,1 C 26,1 C 21,7 C 54 % 1019,6 hPa 0,0 l/m 0 min 0 min 84 W/m 0,0 km/h (0 Bft) 100,00 %
10.07.2023 20:02 26,9 C 25,6 C 21,7 C 53 % 1019,5 hPa 0,0 l/m 0 min 0 min 81 W/m 6,4 km/h (2 Bft) 100,00 %
10.07.2023 20:04 26,9 C 25,6 C 21,7 C 54 % 1019,6 hPa 0,0 l/m 0 min 0 min 79 W/m 6,4 km/h (2 Bft) 100,00 %
10.07.2023 20:06 26,8 C 25,6 C 21,7 C 53 % 1019,5 hPa 0,0 l/m 0 min 0 min 80 W/m 9,7 km/h (2 Bft) 100,00 %
10.07.2023 20:08 26,8 C 25,6 C 21,7 C 54 % 1019,5 hPa 0,0 l/m 0 min 0 min 75 W/m 6,4 km/h (2 Bft) 100,00 %
10.07.2023 20:10 26,8 C 25,6 C 21,7 C 54 % 1019,5 hPa 0,0 l/m 0 min 0 min 74 W/m 3,2 km/h (1 Bft) 97,14 %
10.07.2023 20:12 26,7 C 25,6 C 21,7 C 54 % 1019,6 hPa 0,0 l/m 0 min 0 min 79 W/m 6,4 km/h (2 Bft) 100,00 %
10.07.2023 20:14 26,7 C 25,6 C 21,7 C 55 % 1019,6 hPa 0,0 l/m 0 min 0 min 82 W/m 6,4 km/h (2 Bft) 100,00 %
10.07.2023 20:16 26,6 C 25,6 C 21,7 C 54 % 1019,6 hPa 0,0 l/m 0 min 0 min 84 W/m 3,2 km/h (1 Bft) 100,00 %
10.07.2023 20:18 26,6 C 25,6 C 21,7 C 56 % 1019,6 hPa 0,0 l/m 0 min 0 min 83 W/m 3,2 km/h (1 Bft) 100,00 %
10.07.2023 20:20 26,5 C 25,6 C 21,7 C 57 % 1019,6 hPa 0,0 l/m 0 min 0 min 76 W/m 0,0 km/h (0 Bft) 100,00 %
10.07.2023 20:22 26,5 C 25,0 C 21,7 C 59 % 1019,5 hPa 0,0 l/m 0 min 0 min 71 W/m 0,0 km/h (0 Bft) 100,00 %
10.07.2023 20:24 26,5 C 25,0 C 21,1 C 58 % 1019,6 hPa 0,0 l/m 0 min 0 min 74 W/m 3,2 km/h (1 Bft) 100,00 %
10.07.2023 20:26 26,4 C 25,0 C 21,1 C 58 % 1019,6 hPa 0,0 l/m 0 min 0 min 76 W/m 0,0 km/h (0 Bft) 100,00 %
10.07.2023 20:28 26,4 C 25,0 C 21,1 C 58 % 1019,5 hPa 0,0 l/m 0 min 0 min 70 W/m 0,0 km/h (0 Bft) 100,00 %
10.07.2023 20:30 26,3 C 25,0 C 21,1 C 59 % 1019,5 hPa 0,0 l/m 0 min 0 min 71 W/m 3,2 km/h (1 Bft) 100,00 %
10.07.2023 20:32 26,3 C 25,0 C 21,1 C 60 % 1019,5 hPa 0,0 l/m 0 min 0 min 75 W/m 3,2 km/h (1 Bft) 100,00 %
10.07.2023 20:34 26,2 C 25,0 C 21,1 C 59 % 1019,4 hPa 0,0 l/m 0 min 0 min 76 W/m 3,2 km/h (1 Bft) 100,00 %
10.07.2023 20:36 26,2 C 25,0 C 21,1 C 61 % 1019,4 hPa 0,0 l/m 2 min 0 min 76 W/m 0,0 km/h (0 Bft) 100,00 %
10.07.2023 20:38 26,2 C 25,0 C 21,1 C 61 % 1019,4 hPa 0,0 l/m 0 min 0 min 71 W/m 0,0 km/h (0 Bft) 100,00 %
10.07.2023 20:40 26,2 C 25,0 C 21,1 C 59 % 1019,4 hPa 0,0 l/m 0 min 0 min 67 W/m 0,0 km/h (0 Bft) 100,00 %
10.07.2023 20:42 26,2 C 25,0 C 21,1 C 59 % 1019,4 hPa 0,0 l/m 0 min 0 min 62 W/m 0,0 km/h (0 Bft) 97,87 %
10.07.2023 20:44 26,2 C 25,0 C 20,6 C 58 % 1019,4 hPa 0,0 l/m 0 min 0 min 58 W/m 0,0 km/h (0 Bft) 97,87 %
10.07.2023 20:46 26,2 C 25,0 C 20,6 C 59 % 1019,3 hPa 0,0 l/m 0 min 0 min 55 W/m 0,0 km/h (0 Bft) 100,00 %
10.07.2023 20:48 26,2 C 25,0 C 20,6 C 62 % 1019,3 hPa 0,0 l/m 0 min 0 min 53 W/m 0,0 km/h (0 Bft) 100,00 %
10.07.2023 20:50 26,2 C 25,0 C 20,6 C 62 % 1019,3 hPa 0,0 l/m 0 min 0 min 48 W/m 0,0 km/h (0 Bft) 100,00 %
10.07.2023 20:52 26,2 C 25,0 C 20,6 C 63 % 1019,3 hPa 0,0 l/m 0 min 0 min 42 W/m 0,0 km/h (0 Bft) 95,74 %
10.07.2023 20:54 26,1 C 24,4 C 20,6 C 62 % 1019,3 hPa 0,0 l/m 0 min 0 min 39 W/m 0,0 km/h (0 Bft) 97,87 %
10.07.2023 20:56 26,1 C 24,4 C 20,0 C 63 % 1019,4 hPa 0,0 l/m 0 min 0 min 36 W/m 0,0 km/h (0 Bft) 97,87 %
10.07.2023 20:58 25,9 C 24,4 C 20,0 C 61 % 1019,4 hPa 0,0 l/m 0 min 0 min 34 W/m 0,0 km/h (0 Bft) 97,87 %
10.07.2023 21:00 25,9 C 24,4 C 20,0 C 62 % 1019,4 hPa 0,0 l/m 0 min 0 min 31 W/m 0,0 km/h (0 Bft) 95,74 %
10.07.2023 21:02 25,8 C 24,4 C 20,0 C 61 % 1019,4 hPa 0,0 l/m 0 min 0 min 28 W/m 0,0 km/h (0 Bft) 97,87 %
10.07.2023 21:04 25,8 C 23,9 C 19,4 C 64 % 1019,4 hPa 0,0 l/m 0 min 0 min 25 W/m 0,0 km/h (0 Bft) 97,92 %
10.07.2023 21:06 25,7 C 23,9 C 19,4 C 62 % 1019,4 hPa 0,0 l/m 0 min 0 min 22 W/m 0,0 km/h (0 Bft) 98,31 %
10.07.2023 21:08 25,6 C 23,9 C 19,4 C 63 % 1019,4 hPa 0,0 l/m 0 min 0 min 21 W/m 0,0 km/h (0 Bft) 97,14 %
10.07.2023 21:10 25,6 C 23,3 C 19,4 C 64 % 1019,4 hPa 0,0 l/m 0 min 0 min 21 W/m 0,0 km/h (0 Bft) 93,62 %
10.07.2023 21:12 25,4 C 23,3 C 19,4 C 63 % 1019,4 hPa 0,0 l/m 0 min 0 min 19 W/m 0,0 km/h (0 Bft) 95,74 %
10.07.2023 21:14 25,3 C 23,3 C 19,4 C 64 % 1019,3 hPa 0,0 l/m 0 min 0 min 19 W/m 0,0 km/h (0 Bft) 95,74 %
10.07.2023 21:16 25,2 C 23,3 C 19,4 C 64 % 1019,3 hPa 0,0 l/m 0 min 0 min 19 W/m 0,0 km/h (0 Bft) 95,65 %
10.07.2023 21:18 25,2 C 23,3 C 19,4 C 65 % 1019,3 hPa 0,0 l/m 0 min 0 min 18 W/m 0,0 km/h (0 Bft) 95,74 %
10.07.2023 21:20 25,2 C 23,3 C 19,4 C 66 % 1019,3 hPa 0,0 l/m 0 min 0 min 18 W/m 0,0 km/h (0 Bft) 95,74 %
10.07.2023 21:22 25,1 C 23,3 C 19,4 C 66 % 1019,3 hPa 0,0 l/m 0 min 0 min 18 W/m 0,0 km/h (0 Bft) 91,49 %
10.07.2023 21:24 25,0 C 23,3 C 18,9 C 67 % 1019,2 hPa 0,0 l/m 0 min 0 min 16 W/m 0,0 km/h (0 Bft) 93,62 %
10.07.2023 21:26 24,9 C 23,3 C 18,9 C 67 % 1019,2 hPa 0,0 l/m 0 min 0 min 16 W/m 0,0 km/h (0 Bft) 91,49 %
10.07.2023 21:28 24,9 C 23,3 C 18,9 C 67 % 1019,2 hPa 0,0 l/m 0 min 0 min 14 W/m 0,0 km/h (0 Bft) 95,65 %
10.07.2023 21:30 24,8 C 22,8 C 18,9 C 68 % 1019,2 hPa 0,0 l/m 0 min 0 min 12 W/m 0,0 km/h (0 Bft) 95,74 %
10.07.2023 21:32 24,7 C 22,8 C 18,9 C 67 % 1019,2 hPa 0,0 l/m 0 min 0 min 11 W/m 0,0 km/h (0 Bft) 97,83 %
10.07.2023 21:34 24,6 C 22,8 C 18,9 C 67 % 1019,2 hPa 0,0 l/m 0 min 0 min 10 W/m 0,0 km/h (0 Bft) 95,74 %
10.07.2023 21:36 24,6 C 22,8 C 18,9 C 67 % 1019,1 hPa 0,0 l/m 0 min 0 min 9 W/m 0,0 km/h (0 Bft) 95,74 %
10.07.2023 21:38 24,5 C 22,8 C 18,9 C 67 % 1019,2 hPa 0,0 l/m 0 min 0 min 7 W/m 0,0 km/h (0 Bft) 95,74 %
10.07.2023 21:40 24,4 C 22,8 C 18,9 C 68 % 1019,2 hPa 0,0 l/m 0 min 0 min 6 W/m 0,0 km/h (0 Bft) 95,74 %
10.07.2023 21:42 24,4 C 22,8 C 18,9 C 68 % 1019,2 hPa 0,0 l/m 0 min 0 min 5 W/m 0,0 km/h (0 Bft) 95,74 %
10.07.2023 21:44 24,3 C 22,2 C 18,9 C 69 % 1019,2 hPa 0,0 l/m 0 min 0 min 2 W/m 0,0 km/h (0 Bft) 93,62 %
10.07.2023 21:46 24,2 C 22,2 C 18,9 C 69 % 1019,1 hPa 0,0 l/m 0 min 0 min 0 W/m 0,0 km/h (0 Bft) 93,48 %
10.07.2023 21:48 24,2 C 22,2 C 18,3 C 70 % 1019,1 hPa 0,0 l/m 0 min 0 min 0 W/m 0,0 km/h (0 Bft) 95,74 %
10.07.2023 21:50 24,1 C 22,2 C 18,3 C 70 % 1019,1 hPa 0,0 l/m 0 min 0 min 0 W/m 0,0 km/h (0 Bft) 95,74 %
10.07.2023 21:52 24,0 C 22,2 C 18,3 C 70 % 1019,0 hPa 0,0 l/m 0 min 0 min 0 W/m 0,0 km/h (0 Bft) 93,62 %
10.07.2023 21:54 23,9 C 22,2 C 18,3 C 70 % 1019,0 hPa 0,0 l/m 0 min 0 min 0 W/m 0,0 km/h (0 Bft) 95,74 %
10.07.2023 21:56 23,8 C 21,7 C 18,3 C 69 % 1019,0 hPa 0,0 l/m 0 min 0 min 0 W/m 0,0 km/h (0 Bft) 95,74 %
10.07.2023 21:58 23,7 C 22,2 C 18,3 C 70 % 1019,0 hPa 0,0 l/m 0 min 0 min 0 W/m 0,0 km/h (0 Bft) 95,65 %
10.07.2023 22:00 23,6 C 21,7 C 18,3 C 70 % 1019,0 hPa 0,0 l/m 0 min 0 min 0 W/m 0,0 km/h (0 Bft) 97,87 %
10.07.2023 22:02 23,6 C 21,7 C 18,3 C 70 % 1019,0 hPa 0,0 l/m 0 min 0 min 0 W/m 0,0 km/h (0 Bft) 95,74 %
10.07.2023 22:04 23,6 C 21,7 C 18,3 C 71 % 1019,0 hPa 0,0 l/m 0 min 0 min 0 W/m 0,0 km/h (0 Bft) 97,62 %
10.07.2023 22:06 23,5 C 21,7 C 18,3 C 72 % 1019,0 hPa 0,0 l/m 0 min 0 min 0 W/m 0,0 km/h (0 Bft) 98,48 %
10.07.2023 22:08 23,4 C 21,7 C 17,8 C 72 % 1019,0 hPa 0,0 l/m 0 min 0 min 0 W/m 0,0 km/h (0 Bft) 97,22 %
10.07.2023 22:10 23,4 C 21,7 C 17,8 C 72 % 1019,0 hPa 0,0 l/m 0 min 0 min 0 W/m 0,0 km/h (0 Bft) 100,00 %
10.07.2023 22:12 23,3 C 21,7 C 17,8 C 72 % 1019,0 hPa 0,0 l/m 0 min 0 min 0 W/m 0,0 km/h (0 Bft) 100,00 %
10.07.2023 22:14 23,2 C 21,7 C 17,8 C 72 % 1019,0 hPa 0,0 l/m 0 min 0 min 0 W/m 0,0 km/h (0 Bft) 97,87 %
10.07.2023 22:16 23,2 C 21,1 C 17,8 C 72 % 1019,0 hPa 0,0 l/m 0 min 0 min 0 W/m 0,0 km/h (0 Bft) 100,00 %
10.07.2023 22:18 23,1 C 21,1 C 17,8 C 72 % 1019,0 hPa 0,0 l/m 0 min 0 min 0 W/m 0,0 km/h (0 Bft) 97,87 %
10.07.2023 22:20 23,0 C 21,1 C 17,8 C 72 % 1019,0 hPa 0,0 l/m 0 min 0 min 0 W/m 0,0 km/h (0 Bft) 100,00 %
10.07.2023 22:22 22,9 C 21,1 C 17,8 C 73 % 1019,0 hPa 0,0 l/m 0 min 0 min 0 W/m 0,0 km/h (0 Bft) 100,00 %
10.07.2023 22:24 22,9 C 21,1 C 17,8 C 73 % 1018,9 hPa 0,0 l/m 0 min 0 min 0 W/m 0,0 km/h (0 Bft) 100,00 %
10.07.2023 22:26 22,8 C 21,1 C 17,8 C 73 % 1018,9 hPa 0,0 l/m 0 min 0 min 0 W/m 0,0 km/h (0 Bft) 100,00 %
10.07.2023 22:28 22,8 C 21,1 C 17,8 C 74 % 1018,9 hPa 0,0 l/m 0 min 0 min 0 W/m 0,0 km/h (0 Bft) 97,92 %
10.07.2023 22:30 22,7 C 21,1 C 17,2 C 74 % 1018,9 hPa 0,0 l/m 0 min 0 min 0 W/m 0,0 km/h (0 Bft) 100,00 %
10.07.2023 22:32 22,7 C 21,1 C 17,2 C 74 % 1018,9 hPa 0,0 l/m 0 min 0 min 0 W/m 0,0 km/h (0 Bft) 100,00 %
10.07.2023 22:34 22,6 C 21,1 C 17,2 C 74 % 1018,9 hPa 0,0 l/m 0 min 0 min 0 W/m 0,0 km/h (0 Bft) 100,00 %
10.07.2023 22:36 22,6 C 21,1 C 17,2 C 74 % 1018,9 hPa 0,0 l/m 0 min 0 min 0 W/m 0,0 km/h (0 Bft) 97,87 %
10.07.2023 22:38 22,5 C 21,1 C 17,2 C 74 % 1018,9 hPa 0,0 l/m 0 min 0 min 0 W/m 0,0 km/h (0 Bft) 100,00 %
10.07.2023 22:40 22,5 C 21,1 C 17,2 C 75 % 1019,0 hPa 0,0 l/m 0 min 0 min 0 W/m 0,0 km/h (0 Bft) 100,00 %
10.07.2023 22:42 22,4 C 21,1 C 17,2 C 75 % 1019,0 hPa 0,0 l/m 0 min 0 min 0 W/m 0,0 km/h (0 Bft) 100,00 %
10.07.2023 22:44 22,4 C 21,1 C 17,2 C 75 % 1019,0 hPa 0,0 l/m 0 min 0 min 0 W/m 0,0 km/h (0 Bft) 100,00 %
10.07.2023 22:46 22,3 C 21,1 C 17,2 C 73 % 1019,0 hPa 0,0 l/m 0 min 0 min 0 W/m 3,2 km/h (1 Bft) 95,74 %
10.07.2023 22:48 22,3 C 21,1 C 17,2 C 72 % 1018,9 hPa 0,0 l/m 0 min 0 min 0 W/m 3,2 km/h (1 Bft) 100,00 %
10.07.2023 22:50 22,2 C 21,1 C 17,8 C 72 % 1018,9 hPa 0,0 l/m 0 min 0 min 0 W/m 0,0 km/h (0 Bft) 97,87 %
10.07.2023 22:52 22,2 C 21,7 C 17,8 C 71 % 1018,9 hPa 0,0 l/m 0 min 0 min 0 W/m 0,0 km/h (0 Bft) 97,87 %
10.07.2023 22:54 22,2 C 21,7 C 17,8 C 70 % 1018,9 hPa 0,0 l/m 0 min 0 min 0 W/m 3,2 km/h (1 Bft) 97,87 %
10.07.2023 22:56 22,2 C 21,7 C 17,8 C 71 % 1018,9 hPa 0,0 l/m 0 min 0 min 0 W/m 0,0 km/h (0 Bft) 93,62 %
10.07.2023 22:58 22,2 C 21,7 C 17,8 C 71 % 1018,9 hPa 0,0 l/m 0 min 0 min 0 W/m 0,0 km/h (0 Bft) 97,87 %
10.07.2023 23:00 22,2 C 21,7 C 17,8 C 71 % 1018,9 hPa 0,0 l/m 0 min 0 min 0 W/m 3,2 km/h (1 Bft) 97,87 %
10.07.2023 23:02 22,3 C 21,7 C 17,8 C 71 % 1018,8 hPa 0,0 l/m 0 min 0 min 0 W/m 3,2 km/h (1 Bft) 97,83 %
10.07.2023 23:04 22,3 C 21,7 C 17,8 C 71 % 1018,8 hPa 0,0 l/m 0 min 0 min 0 W/m 3,2 km/h (1 Bft) 97,96 %
10.07.2023 23:06 22,3 C 21,7 C 17,8 C 72 % 1018,8 hPa 0,0 l/m 0 min 0 min 0 W/m 3,2 km/h (1 Bft) 95,38 %
10.07.2023 23:08 22,3 C 21,7 C 17,8 C 72 % 1018,8 hPa 0,0 l/m 0 min 0 min 0 W/m 3,2 km/h (1 Bft) 96,97 %
10.07.2023 23:10 22,3 C 21,7 C 18,3 C 72 % 1018,7 hPa 0,0 l/m 0 min 0 min 0 W/m 3,2 km/h (1 Bft) 97,87 %
10.07.2023 23:12 22,3 C 21,7 C 18,3 C 71 % 1018,7 hPa 0,0 l/m 0 min 0 min 0 W/m 3,2 km/h (1 Bft) 97,87 %
10.07.2023 23:14 22,3 C 21,7 C 18,3 C 71 % 1018,7 hPa 0,0 l/m 0 min 0 min 0 W/m 3,2 km/h (1 Bft) 97,83 %
10.07.2023 23:16 22,3 C 21,7 C 18,3 C 71 % 1018,7 hPa 0,0 l/m 0 min 0 min 0 W/m 3,2 km/h (1 Bft) 97,87 %
10.07.2023 23:18 22,3 C 21,1 C 18,3 C 71 % 1018,7 hPa 0,0 l/m 0 min 0 min 0 W/m 3,2 km/h (1 Bft) 100,00 %
10.07.2023 23:20 22,3 C 21,1 C 18,3 C 71 % 1018,7 hPa 0,0 l/m 0 min 0 min 0 W/m 0,0 km/h (0 Bft) 100,00 %
10.07.2023 23:22 22,3 C 21,1 C 18,3 C 71 % 1018,7 hPa 0,0 l/m 0 min 0 min 0 W/m 0,0 km/h (0 Bft) 100,00 %
10.07.2023 23:24 22,3 C 21,1 C 18,3 C 71 % 1018,7 hPa 0,0 l/m 0 min 0 min 0 W/m 0,0 km/h (0 Bft) 100,00 %
10.07.2023 23:26 22,3 C 21,1 C 18,3 C 70 % 1018,7 hPa 0,0 l/m 0 min 0 min 0 W/m 0,0 km/h (0 Bft) 100,00 %
10.07.2023 23:28 22,3 C 21,1 C 18,3 C 70 % 1018,7 hPa 0,0 l/m 0 min 0 min 0 W/m 0,0 km/h (0 Bft) 100,00 %
10.07.2023 23:30 22,2 C 21,1 C 18,3 C 70 % 1018,7 hPa 0,0 l/m 0 min 0 min 0 W/m 0,0 km/h (0 Bft) 100,00 %
10.07.2023 23:32 22,2 C 21,1 C 18,3 C 70 % 1018,7 hPa 0,0 l/m 0 min 0 min 0 W/m 0,0 km/h (0 Bft) 100,00 %
10.07.2023 23:34 22,2 C 21,1 C 18,3 C 70 % 1018,7 hPa 0,0 l/m 0 min 0 min 0 W/m 0,0 km/h (0 Bft) 100,00 %
10.07.2023 23:36 22,2 C 21,1 C 18,3 C 70 % 1018,7 hPa 0,0 l/m 0 min 0 min 0 W/m 0,0 km/h (0 Bft) 100,00 %
10.07.2023 23:38 22,2 C 21,1 C 18,3 C 70 % 1018,7 hPa 0,0 l/m 0 min 0 min 0 W/m 0,0 km/h (0 Bft) 100,00 %
10.07.2023 23:40 22,2 C 21,1 C 18,3 C 70 % 1018,7 hPa 0,0 l/m 0 min 0 min 0 W/m 0,0 km/h (0 Bft) 100,00 %
10.07.2023 23:42 22,2 C 21,1 C 18,3 C 71 % 1018,7 hPa 0,0 l/m 0 min 0 min 0 W/m 0,0 km/h (0 Bft) 100,00 %
10.07.2023 23:44 22,2 C 21,1 C 17,8 C 70 % 1018,6 hPa 0,0 l/m 0 min 0 min 0 W/m 0,0 km/h (0 Bft) 100,00 %
10.07.2023 23:46 22,2 C 21,1 C 17,8 C 70 % 1018,7 hPa 0,0 l/m 0 min 0 min 0 W/m 0,0 km/h (0 Bft) 97,87 %
10.07.2023 23:48 22,2 C 21,1 C 17,8 C 70 % 1018,6 hPa 0,0 l/m 0 min 0 min 0 W/m 0,0 km/h (0 Bft) 100,00 %
10.07.2023 23:50 22,1 C 21,1 C 17,8 C 70 % 1018,6 hPa 0,0 l/m 0 min 0 min 0 W/m 0,0 km/h (0 Bft) 97,87 %
10.07.2023 23:52 22,1 C 21,1 C 17,8 C 70 % 1018,6 hPa 0,0 l/m 0 min 0 min 0 W/m 0,0 km/h (0 Bft) 100,00 %
10.07.2023 23:54 22,1 C 21,1 C 17,8 C 70 % 1018,5 hPa 0,0 l/m 0 min 0 min 0 W/m 0,0 km/h (0 Bft) 100,00 %
10.07.2023 23:56 22,1 C 21,1 C 17,8 C 70 % 1018,5 hPa 0,0 l/m 0 min 0 min 0 W/m 0,0 km/h (0 Bft) 95,74 %
10.07.2023 23:58 22,1 C 21,1 C 17,8 C 70 % 1018,5 hPa 0,0 l/m 0 min 0 min 0 W/m 0,0 km/h (0 Bft) 97,87 %
_ Min-Zeit 06:12 06:00 05:44 17:32 23:54 - - - - 00:34 13:42
Minimum _ 18,8 C 17,8 C 14,4 C 49 % 1018,5 hPa - - - - 0,0 km/h (0 Bft) 46,15 %
_ Max-Zeit 17:26 14:48 12:48 05:32 09:38 04:54 09:54 04:52 14:32 13:28 00:40
Maximum _ 28,2 C 33,3 C 30,6 C 97 % 1022,1 hPa 0,4 l/m 4 min 2 min 1064 W/m 22,5 km/h
S-SO (4 Bft)
100,00 %
Durchschnitt _ 23,4 C 24,5 C 19,9 C 74 % 1020,6 hPa #1,0 l/m #10:30 h #20 min. 487 W/m 7,2 km/h (2 Bft) 97,52 %
© 2023 W. Hausmann